Time,TemperatureF,DewpointF,PressureIn,WindDirection,WindDirectionDegrees,WindSpeedMPH,WindSpeedGustMPH,Humidity,HourlyPrecipIn,Conditions,Clouds,dailyrainin,SolarRadiationWatts/m^2,SoftwareType,DateUTC
2013-09-06 00:00:00,52.4,41.4,30.23,NNE,23,1.5,1.5,66,0.00,,,0.00,0.00,VWS V14.01,2013-09-06 04:00:00,
2013-09-06 00:01:00,52.1,41.2,30.23,NNE,23,0.0,1.5,66,0.00,,,0.00,0.06,VWS V14.01,2013-09-06 04:01:00,
2013-09-06 00:02:00,51.9,41.3,30.23,NNE,23,0.0,0.0,67,0.00,,,0.00,0.00,VWS V14.01,2013-09-06 04:02:00,
2013-09-06 00:05:00,52.0,42.4,30.22,NNE,23,0.0,0.0,70,0.00,,,0.00,0.00,VWS V14.01,2013-09-06 04:05:00,
2013-09-06 00:06:00,51.0,41.4,30.23,NNE,23,0.0,0.0,70,0.00,,,0.00,0.00,VWS V14.01,2013-09-06 04:06:00,
2013-09-06 00:07:00,52.2,42.7,30.22,NNE,21,0.0,0.0,70,0.00,,,0.00,0.00,VWS V14.01,2013-09-06 04:07:00,
2013-09-06 00:08:00,51.7,42.0,30.23,NNE,21,0.0,0.0,70,0.00,,,0.00,0.00,VWS V14.01,2013-09-06 04:08:00,
2013-09-06 00:12:00,52.4,43.2,30.23,NNE,21,0.0,0.0,71,0.00,,,0.00,0.00,VWS V14.01,2013-09-06 04:12:00,
2013-09-06 00:13:00,52.9,43.7,30.23,NNE,21,0.0,0.0,71,0.00,,,0.00,0.43,VWS V14.01,2013-09-06 04:13:00,
2013-09-06 00:14:00,53.4,43.3,30.24,NNE,29,2.0,2.2,68,0.00,,,0.00,0.00,VWS V14.01,2013-09-06 04:14:00,
2013-09-06 00:15:00,53.5,42.9,30.24,NNE,30,0.0,2.7,67,0.00,,,0.00,0.43,VWS V14.01,2013-09-06 04:15:00,
2013-09-06 00:18:00,53.8,42.3,30.24,NE,41,1.0,2.2,65,0.00,,,0.00,0.00,VWS V14.01,2013-09-06 04:18:00,
2013-09-06 00:19:00,53.8,42.3,30.24,NE,41,1.0,2.2,65,0.00,,,0.00,0.00,VWS V14.01,2013-09-06 04:19:00,
2013-09-06 00:20:00,53.8,42.2,30.24,NE,41,0.0,0.0,65,0.00,,,0.00,0.00,VWS V14.01,2013-09-06 04:20:00,
2013-09-06 00:21:00,52.4,41.0,30.24,NE,41,0.0,1.8,65,0.00,,,0.00,0.00,VWS V14.01,2013-09-06 04:21:00,
2013-09-06 00:24:00,52.6,41.8,30.23,NE,41,0.0,0.0,66,0.00,,,0.00,0.43,VWS V14.01,2013-09-06 04:24:00,
2013-09-06 00:25:00,51.9,41.3,30.22,NE,41,0.0,0.0,67,0.00,,,0.00,0.00,VWS V14.01,2013-09-06 04:25:00,
2013-09-06 00:26:00,51.6,41.6,30.23,NNW,335,0.0,0.0,69,0.00,,,0.00,0.12,VWS V14.01,2013-09-06 04:26:00,
2013-09-06 00:27:00,52.8,43.2,30.23,NNE,13,0.0,0.0,70,0.00,,,0.00,0.00,VWS V14.01,2013-09-06 04:27:00,
2013-09-06 00:28:00,52.6,43.3,30.22,NE,41,0.0,0.0,70,0.00,,,0.00,0.43,VWS V14.01,2013-09-06 04:28:00,
2013-09-06 00:29:00,51.9,42.4,30.22,NE,41,0.0,0.0,70,0.00,,,0.00,0.00,VWS V14.01,2013-09-06 04:29:00,
2013-09-06 00:30:00,54.1,43.3,30.23,NE,41,2.8,3.2,67,0.00,,,0.00,0.00,VWS V14.01,2013-09-06 04:30:00,
2013-09-06 00:31:00,54.2,42.9,30.23,NE,37,3.0,3.2,65,0.00,,,0.00,0.43,VWS V14.01,2013-09-06 04:31:00,
2013-09-06 00:32:00,53.8,42.2,30.27,NE,38,3.0,3.0,65,0.00,,,0.00,0.00,VWS V14.01,2013-09-06 04:32:00,
2013-09-06 00:33:00,54.2,42.1,30.24,NNE,31,3.7,3.7,64,0.00,,,0.00,0.73,VWS V14.01,2013-09-06 04:33:00,
2013-09-06 00:34:00,54.1,41.9,30.23,NE,43,2.8,3.7,63,0.00,,,0.00,0.00,VWS V14.01,2013-09-06 04:34:00,
2013-09-06 00:37:00,54.5,42.3,30.23,NE,48,2.2,2.8,63,0.00,,,0.00,0.00,VWS V14.01,2013-09-06 04:37:00,
2013-09-06 00:38:00,54.6,42.1,30.23,NE,44,2.3,2.3,63,0.00,,,0.00,0.00,VWS V14.01,2013-09-06 04:38:00,
2013-09-06 00:39:00,53.0,40.6,30.23,ENE,69,0.0,2.3,63,0.00,,,0.00,0.00,VWS V14.01,2013-09-06 04:39:00,
2013-09-06 00:41:00,54.1,40.2,30.23,ENE,70,2.3,2.3,59,0.00,,,0.00,0.43,VWS V14.01,2013-09-06 04:41:00,
2013-09-06 00:43:00,54.5,42.4,30.23,ENE,62,1.8,2.2,64,0.00,,,0.00,0.00,VWS V14.01,2013-09-06 04:43:00,
2013-09-06 00:45:00,54.6,42.3,30.24,ENE,62,2.2,2.2,63,0.00,,,0.00,0.00,VWS V14.01,2013-09-06 04:45:00,
2013-09-06 00:46:00,53.9,41.5,30.24,ENE,59,1.8,2.0,63,0.00,,,0.00,0.00,VWS V14.01,2013-09-06 04:46:00,
2013-09-06 00:48:00,54.4,42.6,30.24,NE,34,2.7,2.7,64,0.00,,,0.00,0.00,VWS V14.01,2013-09-06 04:48:00,
2013-09-06 00:49:00,54.0,42.2,30.23,NE,49,3.2,3.2,64,0.00,,,0.00,0.00,VWS V14.01,2013-09-06 04:49:00,
2013-09-06 00:50:00,53.8,42.0,30.23,NE,44,1.3,3.2,64,0.00,,,0.00,0.00,VWS V14.01,2013-09-06 04:50:00,
2013-09-06 00:55:00,52.7,40.6,30.24,ENE,69,1.0,3.4,63,0.00,,,0.00,0.00,VWS V14.01,2013-09-06 04:55:00,
2013-09-06 00:56:00,53.5,41.6,30.24,ENE,67,2.3,2.3,64,0.00,,,0.00,0.00,VWS V14.01,2013-09-06 04:56:00,
2013-09-06 00:59:00,54.4,42.7,30.23,ENE,65,3.4,3.4,65,0.00,,,0.00,0.12,VWS V14.01,2013-09-06 04:59:00,
2013-09-06 01:00:00,54.0,42.2,30.23,ENE,61,2.5,3.4,64,0.00,,,0.00,0.00,VWS V14.01,2013-09-06 05:00:00,
2013-09-06 01:02:00,52.8,41.4,30.24,ENE,61,1.6,1.8,65,0.00,,,0.00,0.00,VWS V14.01,2013-09-06 05:02:00,
2013-09-06 01:03:00,53.0,39.6,30.23,NE,45,1.6,2.0,60,0.00,,,0.00,0.00,VWS V14.01,2013-09-06 05:03:00,
2013-09-06 01:06:00,53.3,40.4,30.23,East,88,1.3,2.2,61,0.00,,,0.00,0.00,VWS V14.01,2013-09-06 05:06:00,
2013-09-06 01:07:00,53.1,42.2,30.24,East,88,2.0,2.2,66,0.00,,,0.00,0.00,VWS V14.01,2013-09-06 05:07:00,
2013-09-06 01:08:00,52.9,42.2,30.24,ENE,74,2.3,2.3,67,0.00,,,0.00,0.00,VWS V14.01,2013-09-06 05:08:00,
2013-09-06 01:10:00,52.7,42.1,30.24,NE,43,2.7,2.7,67,0.00,,,0.00,0.00,VWS V14.01,2013-09-06 05:10:00,
2013-09-06 01:12:00,53.6,43.4,30.23,NE,45,2.8,2.8,68,0.00,,,0.00,0.00,VWS V14.01,2013-09-06 05:12:00,
2013-09-06 01:13:00,53.0,42.7,30.25,NNE,32,1.5,3.0,68,0.00,,,0.00,0.00,VWS V14.01,2013-09-06 05:13:00,
2013-09-06 01:14:00,53.2,43.0,30.24,NE,41,2.2,3.0,68,0.00,,,0.00,0.00,VWS V14.01,2013-09-06 05:14:00,
2013-09-06 01:15:00,53.0,43.3,30.24,NE,52,1.8,2.8,69,0.00,,,0.00,0.00,VWS V14.01,2013-09-06 05:15:00,
2013-09-06 01:18:00,53.8,44.2,30.24,ENE,62,3.0,3.0,70,0.00,,,0.00,0.00,VWS V14.01,2013-09-06 05:18:00,
2013-09-06 01:19:00,52.8,43.3,30.24,NE,52,2.5,3.0,70,0.00,,,0.00,0.00,VWS V14.01,2013-09-06 05:19:00,
2013-09-06 01:20:00,52.7,43.2,30.24,NE,51,3.4,3.4,70,0.00,,,0.00,0.00,VWS V14.01,2013-09-06 05:20:00,
2013-09-06 01:21:00,53.5,44.2,30.24,ENE,67,3.5,3.5,71,0.00,,,0.00,0.00,VWS V14.01,2013-09-06 05:21:00,
2013-09-06 01:22:00,53.0,43.6,30.23,NE,39,2.7,3.5,70,0.00,,,0.00,0.00,VWS V14.01,2013-09-06 05:22:00,
2013-09-06 01:24:00,53.1,43.9,30.24,NNE,30,2.8,2.8,71,0.00,,,0.00,0.00,VWS V14.01,2013-09-06 05:24:00,
2013-09-06 01:25:00,53.3,44.2,30.24,NE,38,2.7,3.0,71,0.00,,,0.00,0.00,VWS V14.01,2013-09-06 05:25:00,
2013-09-06 01:26:00,53.0,43.8,30.24,NE,48,2.7,2.8,71,0.00,,,0.00,0.00,VWS V14.01,2013-09-06 05:26:00,
2013-09-06 01:27:00,52.2,43.1,30.24,NE,53,3.0,3.0,71,0.00,,,0.00,0.00,VWS V14.01,2013-09-06 05:27:00,
2013-09-06 01:28:00,52.7,43.6,30.24,NE,53,2.7,3.0,71,0.00,,,0.00,0.00,VWS V14.01,2013-09-06 05:28:00,
2013-09-06 01:30:00,53.8,45.1,30.24,NE,50,4.2,4.2,72,0.00,,,0.00,0.00,VWS V14.01,2013-09-06 05:30:00,
2013-09-06 01:31:00,53.3,44.6,30.24,NE,41,4.0,4.0,72,0.00,,,0.00,0.00,VWS V14.01,2013-09-06 05:31:00,
2013-09-06 01:32:00,53.3,44.6,30.24,NE,41,4.0,4.0,72,0.00,,,0.00,0.00,VWS V14.01,2013-09-06 05:32:00,
2013-09-06 01:34:00,53.4,45.0,30.24,NE,50,3.7,3.7,73,0.00,,,0.00,0.00,VWS V14.01,2013-09-06 05:34:00,
2013-09-06 01:37:00,52.5,44.5,30.24,NE,50,2.8,3.2,74,0.00,,,0.00,0.43,VWS V14.01,2013-09-06 05:37:00,
2013-09-06 01:39:00,52.3,44.5,30.25,NE,45,2.7,3.9,75,0.00,,,0.00,0.00,VWS V14.01,2013-09-06 05:39:00,
2013-09-06 01:40:00,52.2,44.5,30.24,NE,47,3.5,3.5,75,0.00,,,0.00,0.00,VWS V14.01,2013-09-06 05:40:00,
2013-09-06 01:41:00,52.9,45.4,30.25,NE,52,2.3,3.0,76,0.00,,,0.00,0.00,VWS V14.01,2013-09-06 05:41:00,
2013-09-06 01:42:00,52.1,44.5,30.24,ENE,61,1.6,2.3,75,0.00,,,0.00,0.00,VWS V14.01,2013-09-06 05:42:00,
2013-09-06 01:43:00,52.5,45.1,30.28,NE,44,1.5,1.6,76,0.00,,,0.00,0.00,VWS V14.01,2013-09-06 05:43:00,
2013-09-06 01:44:00,53.7,46.4,30.24,ENE,77,3.5,3.5,76,0.00,,,0.00,0.12,VWS V14.01,2013-09-06 05:44:00,
2013-09-06 01:46:00,52.9,45.4,30.24,ENE,62,3.0,3.0,76,0.00,,,0.00,0.12,VWS V14.01,2013-09-06 05:46:00,
2013-09-06 01:47:00,53.0,45.8,30.24,NE,55,3.0,3.0,76,0.00,,,0.00,0.00,VWS V14.01,2013-09-06 05:47:00,
2013-09-06 01:48:00,53.0,45.8,30.24,NE,55,3.0,3.0,76,0.00,,,0.00,0.00,VWS V14.01,2013-09-06 05:48:00,
2013-09-06 01:49:00,52.1,44.8,30.24,NE,46,2.7,2.7,76,0.00,,,0.00,0.00,VWS V14.01,2013-09-06 05:49:00,
2013-09-06 01:53:00,52.5,45.4,30.24,ENE,59,4.2,4.2,77,0.00,,,0.00,0.00,VWS V14.01,2013-09-06 05:53:00,
2013-09-06 01:54:00,53.0,46.1,30.24,NE,50,4.0,4.2,77,0.00,,,0.00,0.73,VWS V14.01,2013-09-06 05:54:00,
2013-09-06 01:55:00,52.8,46.0,30.25,NE,46,4.0,4.0,78,0.00,,,0.00,0.00,VWS V14.01,2013-09-06 05:55:00,
2013-09-06 02:00:00,52.2,45.5,30.24,ENE,65,2.7,2.8,78,0.00,,,0.00,0.00,VWS V14.01,2013-09-06 06:00:00,
2013-09-06 02:01:00,52.4,45.9,30.24,East,87,4.4,4.4,78,0.00,,,0.00,0.00,VWS V14.01,2013-09-06 06:01:00,
2013-09-06 02:02:00,52.0,45.4,30.24,ENE,68,2.8,4.4,78,0.00,,,0.00,0.12,VWS V14.01,2013-09-06 06:02:00,
2013-09-06 02:03:00,52.0,45.5,30.23,ENE,58,2.7,4.4,79,0.00,,,0.00,0.00,VWS V14.01,2013-09-06 06:03:00,
2013-09-06 02:05:00,51.8,45.6,30.24,ENE,72,4.0,4.9,79,0.00,,,0.00,0.00,VWS V14.01,2013-09-06 06:05:00,
2013-09-06 02:06:00,52.8,46.7,30.24,ENE,62,3.9,4.0,80,0.00,,,0.00,0.00,VWS V14.01,2013-09-06 06:06:00,
2013-09-06 02:07:00,52.5,46.3,30.24,NE,51,3.9,3.9,79,0.00,,,0.00,0.00,VWS V14.01,2013-09-06 06:07:00,
2013-09-06 02:09:00,52.8,46.8,30.24,NE,42,4.0,4.0,80,0.00,,,0.00,0.43,VWS V14.01,2013-09-06 06:09:00,
2013-09-06 02:11:00,52.1,46.1,30.24,East,83,4.0,4.0,80,0.00,,,0.00,0.00,VWS V14.01,2013-09-06 06:11:00,
2013-09-06 02:12:00,52.0,46.2,30.24,ENE,71,4.0,4.0,80,0.00,,,0.00,0.12,VWS V14.01,2013-09-06 06:12:00,
2013-09-06 02:14:00,52.0,46.3,30.24,NE,54,3.0,3.0,81,0.00,,,0.00,0.43,VWS V14.01,2013-09-06 06:14:00,
2013-09-06 02:16:00,51.8,46.4,30.25,NE,43,2.3,2.5,82,0.00,,,0.00,0.00,VWS V14.01,2013-09-06 06:16:00,
2013-09-06 02:17:00,51.8,46.6,30.24,ENE,61,3.4,3.4,82,0.00,,,0.00,0.00,VWS V14.01,2013-09-06 06:17:00,
2013-09-06 02:18:00,52.0,46.8,30.28,ENE,63,4.2,4.2,83,0.00,,,0.00,0.00,VWS V14.01,2013-09-06 06:18:00,
2013-09-06 02:20:00,52.2,47.0,30.23,NE,55,2.0,2.8,83,0.00,,,0.00,0.00,VWS V14.01,2013-09-06 06:20:00,
2013-09-06 02:21:00,51.8,46.7,30.23,NE,47,3.0,3.0,83,0.00,,,0.00,0.00,VWS V14.01,2013-09-06 06:21:00,
2013-09-06 02:22:00,51.4,46.4,30.24,NE,55,3.2,3.2,83,0.00,,,0.00,0.00,VWS V14.01,2013-09-06 06:22:00,
2013-09-06 02:23:00,52.0,47.2,30.24,ENE,69,4.2,4.2,84,0.00,,,0.00,0.00,VWS V14.01,2013-09-06 06:23:00,
2013-09-06 02:24:00,51.5,46.6,30.24,ENE,65,2.8,2.8,83,0.00,,,0.00,0.00,VWS V14.01,2013-09-06 06:24:00,
2013-09-06 02:25:00,51.8,47.0,30.25,ENE,62,3.4,3.4,84,0.00,,,0.00,0.00,VWS V14.01,2013-09-06 06:25:00,
2013-09-06 02:26:00,51.5,46.8,30.24,NE,48,2.2,3.4,84,0.00,,,0.00,0.00,VWS V14.01,2013-09-06 06:26:00,
2013-09-06 02:28:00,51.8,47.1,30.24,NE,53,3.5,3.5,84,0.00,,,0.00,0.00,VWS V14.01,2013-09-06 06:28:00,
2013-09-06 02:29:00,51.4,46.8,30.24,NE,37,3.4,3.5,84,0.00,,,0.00,0.00,VWS V14.01,2013-09-06 06:29:00,
2013-09-06 02:30:00,51.6,47.0,30.24,NE,40,2.3,4.4,84,0.00,,,0.00,0.00,VWS V14.01,2013-09-06 06:30:00,
2013-09-06 02:31:00,51.3,46.7,30.24,NE,55,2.7,4.4,84,0.00,,,0.00,0.00,VWS V14.01,2013-09-06 06:31:00,
2013-09-06 02:34:00,51.2,46.8,30.24,East,83,2.8,3.7,85,0.00,,,0.00,0.00,VWS V14.01,2013-09-06 06:34:00,
2013-09-06 02:36:00,51.8,47.6,30.25,ENE,59,3.0,3.5,85,0.00,,,0.00,0.73,VWS V14.01,2013-09-06 06:36:00,
2013-09-06 02:37:00,51.6,47.3,30.24,East,83,3.5,3.5,85,0.00,,,0.00,0.00,VWS V14.01,2013-09-06 06:37:00,
2013-09-06 02:38:00,51.8,47.5,30.24,East,80,3.4,3.5,85,0.00,,,0.00,0.00,VWS V14.01,2013-09-06 06:38:00,
2013-09-06 02:40:00,51.2,47.0,30.25,ENE,69,2.2,2.8,85,0.00,,,0.00,0.00,VWS V14.01,2013-09-06 06:40:00,
2013-09-06 02:41:00,51.5,45.1,30.24,ENE,71,3.7,3.7,79,0.00,,,0.00,0.00,VWS V14.01,2013-09-06 06:41:00,
2013-09-06 02:44:00,51.4,47.5,30.24,ENE,67,3.9,3.9,86,0.00,,,0.00,0.00,VWS V14.01,2013-09-06 06:44:00,
2013-09-06 02:45:00,51.5,47.5,30.24,NE,54,3.2,3.9,86,0.00,,,0.00,0.00,VWS V14.01,2013-09-06 06:45:00,
2013-09-06 02:46:00,51.5,47.6,30.24,ENE,71,2.3,3.2,86,0.00,,,0.00,0.00,VWS V14.01,2013-09-06 06:46:00,
2013-09-06 02:47:00,51.3,47.5,30.25,ENE,60,2.5,2.5,87,0.00,,,0.00,0.00,VWS V14.01,2013-09-06 06:47:00,
2013-09-06 02:49:00,52.2,48.5,30.24,ENE,68,4.4,4.4,87,0.00,,,0.00,0.00,VWS V14.01,2013-09-06 06:49:00,
2013-09-06 02:50:00,51.5,47.8,30.23,ENE,66,3.7,4.4,87,0.00,,,0.00,0.43,VWS V14.01,2013-09-06 06:50:00,
2013-09-06 02:51:00,51.3,47.6,30.24,ENE,64,3.2,3.2,87,0.00,,,0.00,0.00,VWS V14.01,2013-09-06 06:51:00,
2013-09-06 02:52:00,51.3,47.6,30.25,ENE,61,2.8,3.7,87,0.00,,,0.00,0.00,VWS V14.01,2013-09-06 06:52:00,
2013-09-06 02:54:00,51.6,47.9,30.25,NE,50,3.4,4.7,87,0.00,,,0.00,0.00,VWS V14.01,2013-09-06 06:54:00,
2013-09-06 02:55:00,51.1,47.4,30.24,ENE,57,3.4,3.4,87,0.00,,,0.00,0.00,VWS V14.01,2013-09-06 06:55:00,
2013-09-06 02:56:00,51.3,47.8,30.24,ENE,59,4.0,4.0,88,0.00,,,0.00,0.00,VWS V14.01,2013-09-06 06:56:00,
2013-09-06 02:57:00,51.1,47.5,30.25,ENE,63,3.2,3.2,87,0.00,,,0.00,0.00,VWS V14.01,2013-09-06 06:57:00,
2013-09-06 02:58:00,51.1,47.5,30.25,East,79,4.5,4.5,87,0.00,,,0.00,0.00,VWS V14.01,2013-09-06 06:58:00,
2013-09-06 02:59:00,51.3,47.7,30.25,NE,53,3.7,4.5,88,0.00,,,0.00,0.00,VWS V14.01,2013-09-06 06:59:00,
2013-09-06 03:00:00,51.3,47.8,30.24,ENE,72,4.0,4.0,88,0.00,,,0.00,0.00,VWS V14.01,2013-09-06 07:00:00,
2013-09-06 03:01:00,51.2,47.7,30.25,NE,53,2.8,4.0,88,0.00,,,0.00,0.00,VWS V14.01,2013-09-06 07:01:00,
2013-09-06 03:02:00,51.2,47.7,30.25,NE,50,2.8,2.8,88,0.00,,,0.00,0.00,VWS V14.01,2013-09-06 07:02:00,
2013-09-06 03:03:00,51.2,47.7,30.25,NE,48,4.4,4.4,88,0.00,,,0.00,0.00,VWS V14.01,2013-09-06 07:03:00,
2013-09-06 03:04:00,51.1,47.6,30.24,NE,53,3.0,4.9,88,0.00,,,0.00,0.00,VWS V14.01,2013-09-06 07:04:00,
2013-09-06 03:06:00,51.6,48.0,30.25,ENE,59,3.2,3.2,88,0.00,,,0.00,0.00,VWS V14.01,2013-09-06 07:06:00,
2013-09-06 03:07:00,51.0,47.5,30.25,NE,50,2.8,4.9,88,0.00,,,0.00,0.00,VWS V14.01,2013-09-06 07:07:00,
2013-09-06 03:08:00,51.2,47.7,30.25,NE,49,3.9,3.9,88,0.00,,,0.00,0.00,VWS V14.01,2013-09-06 07:08:00,
2013-09-06 03:09:00,51.2,47.9,30.25,ENE,67,4.0,4.0,88,0.00,,,0.00,0.73,VWS V14.01,2013-09-06 07:09:00,
2013-09-06 03:11:00,51.4,48.0,30.25,ENE,71,3.5,5.9,88,0.00,,,0.00,0.00,VWS V14.01,2013-09-06 07:11:00,
2013-09-06 03:12:00,50.7,47.4,30.25,ENE,76,2.2,4.0,88,0.00,,,0.00,0.43,VWS V14.01,2013-09-06 07:12:00,
2013-09-06 03:13:00,51.1,47.9,30.24,NE,45,3.7,3.7,89,0.00,,,0.00,0.00,VWS V14.01,2013-09-06 07:13:00,
2013-09-06 03:14:00,51.0,47.8,30.24,ENE,66,2.7,3.7,89,0.00,,,0.00,0.00,VWS V14.01,2013-09-06 07:14:00,
2013-09-06 03:15:00,51.0,47.9,30.24,East,90,4.5,4.5,89,0.00,,,0.00,0.00,VWS V14.01,2013-09-06 07:15:00,
2013-09-06 03:17:00,51.4,48.3,30.25,NE,51,3.7,3.7,89,0.00,,,0.00,0.00,VWS V14.01,2013-09-06 07:17:00,
2013-09-06 03:18:00,51.4,48.3,30.25,NE,51,3.7,3.7,89,0.00,,,0.00,0.00,VWS V14.01,2013-09-06 07:18:00,
2013-09-06 03:20:00,50.9,47.7,30.25,NE,50,2.5,2.5,89,0.00,,,0.00,0.00,VWS V14.01,2013-09-06 07:20:00,
2013-09-06 03:23:00,50.9,47.8,30.25,NE,39,2.3,2.3,89,0.00,,,0.00,0.00,VWS V14.01,2013-09-06 07:23:00,
2013-09-06 03:24:00,51.0,47.9,30.25,NE,39,2.3,2.3,89,0.00,,,0.00,0.00,VWS V14.01,2013-09-06 07:24:00,
2013-09-06 03:25:00,50.8,47.7,30.24,NE,50,2.2,2.3,89,0.00,,,0.00,0.00,VWS V14.01,2013-09-06 07:25:00,
2013-09-06 03:26:00,51.3,48.2,30.24,ENE,66,3.2,3.2,89,0.00,,,0.00,0.00,VWS V14.01,2013-09-06 07:26:00,
2013-09-06 03:28:00,50.7,47.7,30.26,NE,55,1.3,2.5,89,0.00,,,0.00,0.00,VWS V14.01,2013-09-06 07:28:00,
2013-09-06 03:30:00,51.0,48.1,30.25,ENE,72,2.5,2.5,90,0.00,,,0.00,0.00,VWS V14.01,2013-09-06 07:30:00,
2013-09-06 03:31:00,50.8,47.9,30.24,ENE,73,2.2,2.5,90,0.00,,,0.00,0.43,VWS V14.01,2013-09-06 07:31:00,
2013-09-06 03:32:00,50.7,47.9,30.25,ENE,60,2.5,2.7,90,0.00,,,0.00,0.00,VWS V14.01,2013-09-06 07:32:00,
2013-09-06 03:34:00,50.7,47.9,30.25,NE,51,1.8,1.8,90,0.00,,,0.00,0.00,VWS V14.01,2013-09-06 07:34:00,
2013-09-06 03:35:00,50.5,47.9,30.25,NE,48,1.5,1.5,91,0.00,,,0.00,0.00,VWS V14.01,2013-09-06 07:35:00,
2013-09-06 03:36:00,50.6,47.2,30.25,ENE,62,2.3,2.3,88,0.00,,,0.00,0.43,VWS V14.01,2013-09-06 07:36:00,
2013-09-06 03:37:00,50.6,47.2,30.25,ENE,62,2.3,2.3,88,0.00,,,0.00,0.43,VWS V14.01,2013-09-06 07:37:00,
2013-09-06 03:38:00,50.4,47.8,30.25,NE,53,1.5,2.0,91,0.00,,,0.00,0.12,VWS V14.01,2013-09-06 07:38:00,
2013-09-06 03:39:00,50.7,48.3,30.24,ENE,57,2.8,2.8,91,0.00,,,0.00,0.43,VWS V14.01,2013-09-06 07:39:00,
2013-09-06 03:40:00,50.5,48.0,30.25,NE,50,1.8,2.8,91,0.00,,,0.00,0.00,VWS V14.01,2013-09-06 07:40:00,
2013-09-06 03:42:00,50.4,48.0,30.25,NE,43,2.0,2.0,91,0.00,,,0.00,0.00,VWS V14.01,2013-09-06 07:42:00,
2013-09-06 03:44:00,50.4,48.1,30.25,NE,47,2.2,3.5,92,0.00,,,0.00,0.00,VWS V14.01,2013-09-06 07:44:00,
2013-09-06 03:45:00,50.7,48.3,30.25,NE,45,2.7,2.7,92,0.00,,,0.00,0.00,VWS V14.01,2013-09-06 07:45:00,
2013-09-06 03:46:00,50.7,48.3,30.25,NE,45,2.7,2.7,92,0.00,,,0.00,0.00,VWS V14.01,2013-09-06 07:46:00,
2013-09-06 03:47:00,50.7,48.4,30.24,NE,44,2.2,2.2,92,0.00,,,0.00,0.00,VWS V14.01,2013-09-06 07:47:00,
2013-09-06 03:48:00,50.4,48.1,30.25,NE,44,2.0,2.2,92,0.00,,,0.00,0.00,VWS V14.01,2013-09-06 07:48:00,
2013-09-06 03:50:00,50.2,47.9,30.25,NE,39,2.7,2.8,92,0.00,,,0.00,0.00,VWS V14.01,2013-09-06 07:50:00,
2013-09-06 03:51:00,50.2,47.9,30.25,NE,39,2.7,2.8,92,0.00,,,0.00,0.00,VWS V14.01,2013-09-06 07:51:00,
2013-09-06 03:52:00,50.0,47.8,30.26,NE,46,2.2,2.2,92,0.00,,,0.00,0.00,VWS V14.01,2013-09-06 07:52:00,
2013-09-06 03:53:00,50.2,48.0,30.24,NE,48,2.3,2.8,92,0.00,,,0.00,0.00,VWS V14.01,2013-09-06 07:53:00,
2013-09-06 03:55:00,50.5,48.5,30.25,NE,44,3.0,3.0,93,0.00,,,0.00,0.00,VWS V14.01,2013-09-06 07:55:00,
2013-09-06 03:56:00,50.0,47.9,30.25,NE,54,1.0,3.0,92,0.00,,,0.00,0.00,VWS V14.01,2013-09-06 07:56:00,
2013-09-06 03:58:00,50.2,48.1,30.25,NE,40,2.2,3.2,92,0.00,,,0.00,0.00,VWS V14.01,2013-09-06 07:58:00,
2013-09-06 03:59:00,50.2,48.1,30.25,NE,40,2.2,3.2,92,0.00,,,0.00,0.00,VWS V14.01,2013-09-06 07:59:00,
2013-09-06 04:01:00,50.4,48.4,30.26,NE,39,3.0,3.7,93,0.00,,,0.00,0.43,VWS V14.01,2013-09-06 08:01:00,
2013-09-06 04:02:00,50.3,48.3,30.25,NE,35,2.7,2.7,93,0.00,,,0.00,0.00,VWS V14.01,2013-09-06 08:02:00,
2013-09-06 04:04:00,50.5,48.6,30.26,NE,38,3.0,3.4,93,0.00,,,0.00,0.00,VWS V14.01,2013-09-06 08:04:00,
2013-09-06 04:06:00,51.0,49.1,30.26,NE,46,3.7,3.7,93,0.00,,,0.00,0.00,VWS V14.01,2013-09-06 08:06:00,
2013-09-06 04:07:00,50.2,48.0,30.26,NE,45,2.3,3.7,92,0.00,,,0.00,0.00,VWS V14.01,2013-09-06 08:07:00,
2013-09-06 04:08:00,50.4,48.3,30.25,NE,40,2.0,2.5,92,0.00,,,0.00,0.00,VWS V14.01,2013-09-06 08:08:00,
2013-09-06 04:10:00,50.9,48.8,30.25,NE,40,3.0,3.0,93,0.00,,,0.00,0.00,VWS V14.01,2013-09-06 08:10:00,
2013-09-06 04:11:00,50.2,48.1,30.25,NE,41,1.8,3.0,93,0.00,,,0.00,0.43,VWS V14.01,2013-09-06 08:11:00,
2013-09-06 04:12:00,50.3,48.3,30.29,NNE,30,2.3,2.5,93,0.00,,,0.00,0.00,VWS V14.01,2013-09-06 08:12:00,
2013-09-06 04:13:00,50.2,48.2,30.26,NE,49,2.0,3.4,93,0.00,,,0.00,0.00,VWS V14.01,2013-09-06 08:13:00,
2013-09-06 04:14:00,50.2,48.2,30.26,NE,49,2.0,3.4,93,0.00,,,0.00,0.00,VWS V14.01,2013-09-06 08:14:00,
2013-09-06 04:15:00,50.7,48.7,30.26,NE,36,3.0,3.0,93,0.00,,,0.00,0.43,VWS V14.01,2013-09-06 08:15:00,
2013-09-06 04:16:00,49.8,47.8,30.26,NE,49,0.0,3.0,93,0.00,,,0.00,0.43,VWS V14.01,2013-09-06 08:16:00,
2013-09-06 04:17:00,49.9,47.9,30.27,NE,54,0.0,0.0,93,0.00,,,0.00,0.73,VWS V14.01,2013-09-06 08:17:00,
2013-09-06 04:18:00,50.3,48.2,30.26,NE,51,1.0,1.0,93,0.00,,,0.00,0.00,VWS V14.01,2013-09-06 08:18:00,
2013-09-06 04:19:00,49.7,47.7,30.26,ENE,57,1.0,1.5,93,0.00,,,0.00,0.00,VWS V14.01,2013-09-06 08:19:00,
2013-09-06 04:23:00,50.0,48.1,30.26,ENE,57,1.0,2.3,93,0.00,,,0.00,0.00,VWS V14.01,2013-09-06 08:23:00,
2013-09-06 04:24:00,50.0,48.1,30.26,ENE,57,1.0,2.3,93,0.00,,,0.00,0.00,VWS V14.01,2013-09-06 08:24:00,
2013-09-06 04:25:00,50.1,48.2,30.25,NE,56,2.7,2.7,93,0.00,,,0.00,0.06,VWS V14.01,2013-09-06 08:25:00,
2013-09-06 04:26:00,49.9,48.1,30.26,NE,47,0.0,2.8,93,0.00,,,0.00,0.00,VWS V14.01,2013-09-06 08:26:00,
2013-09-06 04:29:00,50.1,48.4,30.27,NE,47,1.5,1.8,94,0.00,,,0.00,0.06,VWS V14.01,2013-09-06 08:29:00,
2013-09-06 04:30:00,50.2,48.5,30.26,NE,45,1.1,1.6,94,0.00,,,0.00,0.00,VWS V14.01,2013-09-06 08:30:00,
2013-09-06 04:31:00,50.0,48.3,30.27,ENE,63,2.0,2.0,94,0.00,,,0.00,0.00,VWS V14.01,2013-09-06 08:31:00,
2013-09-06 04:34:00,50.3,48.6,30.26,ENE,63,0.0,0.0,94,0.00,,,0.00,0.00,VWS V14.01,2013-09-06 08:34:00,
2013-09-06 04:35:00,49.9,48.3,30.26,ENE,63,0.0,0.0,94,0.00,,,0.00,0.00,VWS V14.01,2013-09-06 08:35:00,
2013-09-06 04:36:00,49.5,47.8,30.26,ENE,63,0.0,0.0,94,0.00,,,0.00,0.00,VWS V14.01,2013-09-06 08:36:00,
2013-09-06 04:37:00,49.5,47.9,30.25,ENE,63,0.0,0.0,94,0.00,,,0.00,0.00,VWS V14.01,2013-09-06 08:37:00,
2013-09-06 04:39:00,49.2,47.7,30.26,ENE,63,0.0,0.0,95,0.00,,,0.00,0.00,VWS V14.01,2013-09-06 08:39:00,
2013-09-06 04:40:00,49.0,47.4,30.26,ENE,63,0.0,0.0,94,0.00,,,0.00,0.00,VWS V14.01,2013-09-06 08:40:00,
2013-09-06 04:41:00,49.3,47.7,30.26,ENE,63,0.0,0.0,94,0.00,,,0.00,0.00,VWS V14.01,2013-09-06 08:41:00,
2013-09-06 04:42:00,49.1,47.6,30.26,ENE,63,0.0,0.0,95,0.00,,,0.00,0.00,VWS V14.01,2013-09-06 08:42:00,
2013-09-06 04:45:00,48.3,46.5,30.26,ENE,63,0.0,0.0,93,0.00,,,0.00,0.00,VWS V14.01,2013-09-06 08:45:00,
2013-09-06 04:46:00,48.0,46.3,30.25,SE,142,0.0,0.0,94,0.00,,,0.00,0.00,VWS V14.01,2013-09-06 08:46:00,
2013-09-06 04:47:00,48.0,46.3,30.25,SE,142,0.0,0.0,94,0.00,,,0.00,0.43,VWS V14.01,2013-09-06 08:47:00,
2013-09-06 04:48:00,47.9,46.3,30.26,SE,142,0.0,0.0,94,0.00,,,0.00,0.00,VWS V14.01,2013-09-06 08:48:00,
2013-09-06 04:50:00,47.9,46.3,30.26,SE,142,0.0,0.0,94,0.00,,,0.00,0.00,VWS V14.01,2013-09-06 08:50:00,
2013-09-06 04:51:00,47.9,46.4,30.26,SE,142,0.0,0.0,94,0.00,,,0.00,0.00,VWS V14.01,2013-09-06 08:51:00,
2013-09-06 04:52:00,47.3,45.9,30.27,SE,142,0.0,0.0,95,0.00,,,0.00,0.00,VWS V14.01,2013-09-06 08:52:00,
2013-09-06 04:54:00,47.1,45.7,30.26,SE,142,0.0,0.0,95,0.00,,,0.00,0.00,VWS V14.01,2013-09-06 08:54:00,
2013-09-06 04:56:00,46.7,45.3,30.25,SE,142,0.0,0.0,95,0.00,,,0.00,0.00,VWS V14.01,2013-09-06 08:56:00,
2013-09-06 04:57:00,46.5,45.1,30.25,SE,142,0.0,0.0,95,0.00,,,0.00,0.12,VWS V14.01,2013-09-06 08:57:00,
2013-09-06 04:59:00,47.6,46.4,30.25,SE,142,0.0,0.0,96,0.00,,,0.00,0.00,VWS V14.01,2013-09-06 08:59:00,
2013-09-06 05:03:00,48.7,48.3,30.26,ENE,63,0.0,0.0,99,0.00,,,0.00,0.00,VWS V14.01,2013-09-06 09:03:00,
2013-09-06 05:04:00,48.7,48.3,30.26,ENE,63,0.0,0.0,99,0.00,,,0.00,0.00,VWS V14.01,2013-09-06 09:04:00,
2013-09-06 05:05:00,48.8,48.5,30.25,NE,41,1.8,1.8,99,0.00,,,0.00,0.06,VWS V14.01,2013-09-06 09:05:00,
2013-09-06 05:09:00,47.6,47.0,30.27,NNE,30,0.0,1.8,98,0.00,,,0.00,0.00,VWS V14.01,2013-09-06 09:09:00,
2013-09-06 05:10:00,47.7,47.1,30.30,NNE,30,0.0,1.8,98,0.00,,,0.00,0.00,VWS V14.01,2013-09-06 09:10:00,
2013-09-06 05:11:00,47.8,47.2,30.26,NNE,30,0.0,1.8,98,0.00,,,0.00,0.00,VWS V14.01,2013-09-06 09:11:00,
2013-09-06 05:13:00,47.7,47.3,30.26,NNE,30,0.0,1.8,98,0.00,,,0.00,0.00,VWS V14.01,2013-09-06 09:13:00,
2013-09-06 05:14:00,47.9,47.6,30.26,NNE,30,0.0,1.8,99,0.00,,,0.00,0.00,VWS V14.01,2013-09-06 09:14:00,
2013-09-06 05:15:00,47.8,47.6,30.26,NNE,30,0.0,1.8,99,0.00,,,0.00,0.00,VWS V14.01,2013-09-06 09:15:00,
2013-09-06 05:16:00,47.8,46.8,30.26,NNE,30,0.0,1.8,96,0.00,,,0.00,0.00,VWS V14.01,2013-09-06 09:16:00,
2013-09-06 05:18:00,47.8,47.7,30.27,NNE,30,0.0,1.8,100,0.00,,,0.00,0.12,VWS V14.01,2013-09-06 09:18:00,
2013-09-06 05:19:00,47.7,47.7,30.26,NNE,30,0.0,1.8,100,0.00,,,0.00,0.00,VWS V14.01,2013-09-06 09:19:00,
2013-09-06 05:20:00,47.6,47.6,30.26,NNE,30,0.0,1.8,100,0.00,,,0.00,0.00,VWS V14.01,2013-09-06 09:20:00,
2013-09-06 05:21:00,47.7,47.7,30.26,NNE,30,0.0,1.8,100,0.00,,,0.00,0.12,VWS V14.01,2013-09-06 09:21:00,
2013-09-06 05:22:00,47.6,47.6,30.26,NNE,30,0.0,1.8,100,0.00,,,0.00,0.43,VWS V14.01,2013-09-06 09:22:00,
2013-09-06 05:23:00,47.7,47.7,30.26,NNE,30,0.0,1.8,100,0.00,,,0.00,0.43,VWS V14.01,2013-09-06 09:23:00,
2013-09-06 05:25:00,47.8,47.8,30.25,NNE,30,0.0,1.8,100,0.00,,,0.00,0.00,VWS V14.01,2013-09-06 09:25:00,
2013-09-06 05:26:00,47.8,47.8,30.25,NNE,30,0.0,1.8,100,0.00,,,0.00,0.67,VWS V14.01,2013-09-06 09:26:00,
2013-09-06 05:27:00,47.7,47.7,30.24,NNE,30,0.0,1.8,100,0.00,,,0.00,0.00,VWS V14.01,2013-09-06 09:27:00,
2013-09-06 05:29:00,46.5,46.5,30.26,NNE,30,0.0,1.8,100,0.00,,,0.00,0.00,VWS V14.01,2013-09-06 09:29:00,
2013-09-06 05:32:00,47.7,47.7,30.26,NNE,30,0.0,1.8,100,0.00,,,0.00,0.12,VWS V14.01,2013-09-06 09:32:00,
2013-09-06 05:34:00,46.6,46.6,30.26,NNE,30,0.0,1.8,100,0.00,,,0.00,0.73,VWS V14.01,2013-09-06 09:34:00,
2013-09-06 05:37:00,46.4,46.4,30.25,NNE,30,0.0,1.8,100,0.00,,,0.00,0.43,VWS V14.01,2013-09-06 09:37:00,
2013-09-06 05:38:00,46.5,46.5,30.26,NNE,30,0.0,1.8,100,0.00,,,0.00,0.00,VWS V14.01,2013-09-06 09:38:00,
2013-09-06 05:39:00,46.4,46.4,30.26,NNE,30,0.0,1.8,100,0.00,,,0.00,0.00,VWS V14.01,2013-09-06 09:39:00,
2013-09-06 05:40:00,46.7,46.7,30.26,NNE,30,0.0,1.8,100,0.00,,,0.00,0.00,VWS V14.01,2013-09-06 09:40:00,
2013-09-06 05:43:00,46.8,46.8,30.30,NNE,30,0.0,1.8,100,0.00,,,0.00,0.00,VWS V14.01,2013-09-06 09:43:00,
2013-09-06 05:44:00,46.8,46.8,30.28,NNE,30,0.0,1.8,100,0.00,,,0.00,0.12,VWS V14.01,2013-09-06 09:44:00,
2013-09-06 05:45:00,47.1,47.1,30.27,NNE,30,0.0,1.8,100,0.00,,,0.00,0.00,VWS V14.01,2013-09-06 09:45:00,
2013-09-06 05:46:00,47.1,47.1,30.27,NNE,30,0.0,1.8,100,0.00,,,0.00,0.00,VWS V14.01,2013-09-06 09:46:00,
2013-09-06 05:49:00,46.7,46.7,30.26,NNE,30,0.0,1.8,100,0.00,,,0.00,0.73,VWS V14.01,2013-09-06 09:49:00,
2013-09-06 05:50:00,46.1,46.1,30.25,NNE,30,0.0,1.8,100,0.00,,,0.00,0.12,VWS V14.01,2013-09-06 09:50:00,
2013-09-06 05:51:00,46.0,46.0,30.27,NNE,30,0.0,1.8,100,0.00,,,0.00,0.00,VWS V14.01,2013-09-06 09:51:00,
2013-09-06 05:52:00,45.9,45.9,30.27,NNE,30,0.0,1.8,100,0.00,,,0.00,0.00,VWS V14.01,2013-09-06 09:52:00,
2013-09-06 05:53:00,45.7,45.7,30.26,NNE,30,0.0,1.8,100,0.00,,,0.00,0.43,VWS V14.01,2013-09-06 09:53:00,
2013-09-06 05:54:00,45.5,45.5,30.26,NNE,30,0.0,1.8,100,0.00,,,0.00,0.00,VWS V14.01,2013-09-06 09:54:00,
2013-09-06 05:55:00,45.5,45.5,30.26,NNE,30,0.0,1.8,100,0.00,,,0.00,0.00,VWS V14.01,2013-09-06 09:55:00,
2013-09-06 05:56:00,45.5,45.5,30.27,NNE,30,0.0,1.8,100,0.00,,,0.00,0.00,VWS V14.01,2013-09-06 09:56:00,
2013-09-06 05:58:00,45.6,45.6,30.27,NNE,30,0.0,1.8,100,0.00,,,0.00,0.12,VWS V14.01,2013-09-06 09:58:00,
2013-09-06 05:59:00,45.6,45.6,30.27,NNE,30,0.0,1.8,100,0.00,,,0.00,0.12,VWS V14.01,2013-09-06 09:59:00,
2013-09-06 06:01:00,46.5,46.5,30.26,NNE,30,0.0,0.0,100,0.00,,,0.00,0.43,VWS V14.01,2013-09-06 10:01:00,
2013-09-06 06:02:00,46.0,46.0,30.26,NNE,30,0.0,0.0,100,0.00,,,0.00,0.12,VWS V14.01,2013-09-06 10:02:00,
2013-09-06 06:03:00,45.6,45.6,30.26,NNE,30,0.0,0.0,100,0.00,,,0.00,0.73,VWS V14.01,2013-09-06 10:03:00,
2013-09-06 06:04:00,45.7,45.7,30.26,NNE,30,0.0,0.0,100,0.00,,,0.00,0.00,VWS V14.01,2013-09-06 10:04:00,
2013-09-06 06:05:00,45.4,45.4,30.27,NNE,30,0.0,0.0,100,0.00,,,0.00,0.00,VWS V14.01,2013-09-06 10:05:00,
2013-09-06 06:07:00,45.5,45.5,30.26,NNE,30,0.0,0.0,100,0.00,,,0.00,0.43,VWS V14.01,2013-09-06 10:07:00,
2013-09-06 06:09:00,45.4,45.4,30.27,NNE,30,0.0,0.0,100,0.00,,,0.00,0.00,VWS V14.01,2013-09-06 10:09:00,
2013-09-06 06:10:00,45.1,45.1,30.27,NNE,30,0.0,0.0,100,0.00,,,0.00,0.43,VWS V14.01,2013-09-06 10:10:00,
2013-09-06 06:11:00,45.7,45.7,30.26,NNE,30,0.0,0.0,100,0.00,,,0.00,0.00,VWS V14.01,2013-09-06 10:11:00,
2013-09-06 06:12:00,46.6,46.6,30.27,NNE,30,0.0,0.0,100,0.00,,,0.00,0.00,VWS V14.01,2013-09-06 10:12:00,
2013-09-06 06:14:00,46.4,46.4,30.27,NNE,30,0.0,0.0,100,0.00,,,0.00,0.00,VWS V14.01,2013-09-06 10:14:00,
2013-09-06 06:16:00,45.5,45.5,30.27,NNE,30,0.0,0.0,100,0.00,,,0.00,0.00,VWS V14.01,2013-09-06 10:16:00,
2013-09-06 06:17:00,46.1,46.2,30.26,NNE,30,0.0,0.0,100,0.00,,,0.00,0.00,VWS V14.01,2013-09-06 10:17:00,
2013-09-06 06:19:00,46.2,46.2,30.27,NNE,30,0.0,0.0,100,0.00,,,0.00,0.00,VWS V14.01,2013-09-06 10:19:00,
2013-09-06 06:21:00,45.8,45.8,30.26,NNE,30,0.0,0.0,100,0.00,,,0.00,0.06,VWS V14.01,2013-09-06 10:21:00,
2013-09-06 06:22:00,45.8,45.8,30.26,NNE,30,0.0,0.0,100,0.00,,,0.00,0.00,VWS V14.01,2013-09-06 10:22:00,
2013-09-06 06:23:00,45.4,45.4,30.25,NNE,30,0.0,0.0,100,0.00,,,0.00,0.12,VWS V14.01,2013-09-06 10:23:00,
2013-09-06 06:24:00,45.3,45.3,30.26,NNE,30,0.0,0.0,100,0.00,,,0.00,0.00,VWS V14.01,2013-09-06 10:24:00,
2013-09-06 06:25:00,45.7,45.7,30.26,NNE,30,0.0,0.0,100,0.00,,,0.00,0.00,VWS V14.01,2013-09-06 10:25:00,
2013-09-06 06:27:00,46.5,46.5,30.26,NNE,30,0.0,0.0,100,0.00,,,0.00,0.00,VWS V14.01,2013-09-06 10:27:00,
2013-09-06 06:28:00,46.5,46.5,30.26,NNE,30,0.0,0.0,100,0.00,,,0.00,0.00,VWS V14.01,2013-09-06 10:28:00,
2013-09-06 06:29:00,46.5,46.5,30.27,NNE,30,0.0,0.0,100,0.00,,,0.00,0.00,VWS V14.01,2013-09-06 10:29:00,
2013-09-06 06:30:00,46.3,46.3,30.26,NNE,30,0.0,0.0,100,0.00,,,0.00,0.43,VWS V14.01,2013-09-06 10:30:00,
2013-09-06 06:32:00,46.5,46.5,30.27,NNE,30,0.0,0.0,100,0.00,,,0.00,0.00,VWS V14.01,2013-09-06 10:32:00,
2013-09-06 06:33:00,46.5,46.5,30.26,NNE,30,0.0,0.0,100,0.00,,,0.00,0.00,VWS V14.01,2013-09-06 10:33:00,
2013-09-06 06:34:00,46.6,46.6,30.26,NNE,30,0.0,0.0,100,0.00,,,0.00,0.00,VWS V14.01,2013-09-06 10:34:00,
2013-09-06 06:35:00,46.7,46.7,30.26,NNE,30,0.0,0.0,100,0.00,,,0.00,0.00,VWS V14.01,2013-09-06 10:35:00,
2013-09-06 06:38:00,46.6,46.6,30.25,NNE,30,0.0,0.0,100,0.00,,,0.00,0.00,VWS V14.01,2013-09-06 10:38:00,
2013-09-06 06:39:00,46.6,46.6,30.26,NNE,30,0.0,0.0,100,0.00,,,0.00,0.00,VWS V14.01,2013-09-06 10:39:00,
2013-09-06 06:40:00,46.6,46.6,30.26,NNE,30,0.0,0.0,100,0.00,,,0.00,0.00,VWS V14.01,2013-09-06 10:40:00,
2013-09-06 06:41:00,46.1,46.1,30.27,NNE,30,0.0,0.0,100,0.00,,,0.00,0.00,VWS V14.01,2013-09-06 10:41:00,
2013-09-06 06:42:00,45.7,45.8,30.27,NNE,30,0.0,0.0,100,0.00,,,0.00,0.00,VWS V14.01,2013-09-06 10:42:00,
2013-09-06 06:45:00,45.6,45.6,30.27,NNE,30,0.0,0.0,100,0.00,,,0.00,0.00,VWS V14.01,2013-09-06 10:45:00,
2013-09-06 06:46:00,46.0,46.0,30.26,NNE,30,0.0,0.0,100,0.00,,,0.00,0.00,VWS V14.01,2013-09-06 10:46:00,
2013-09-06 06:47:00,45.6,45.6,30.26,NNE,30,0.0,0.0,100,0.00,,,0.00,0.00,VWS V14.01,2013-09-06 10:47:00,
2013-09-06 06:48:00,45.5,45.5,30.26,NNE,30,0.0,0.0,100,0.00,,,0.00,0.12,VWS V14.01,2013-09-06 10:48:00,
2013-09-06 06:51:00,45.8,45.8,30.27,NNE,30,0.0,0.0,100,0.00,,,0.00,0.00,VWS V14.01,2013-09-06 10:51:00,
2013-09-06 06:52:00,46.0,46.0,30.26,NNE,30,0.0,0.0,100,0.00,,,0.00,0.00,VWS V14.01,2013-09-06 10:52:00,
2013-09-06 06:53:00,46.2,46.2,30.26,NNE,30,0.0,0.0,100,0.00,,,0.00,0.00,VWS V14.01,2013-09-06 10:53:00,
2013-09-06 06:56:00,46.1,46.1,30.26,NNE,30,0.0,0.0,100,0.00,,,0.00,0.31,VWS V14.01,2013-09-06 10:56:00,
2013-09-06 06:57:00,46.2,46.2,30.27,NNE,30,0.0,0.0,100,0.00,,,0.00,0.31,VWS V14.01,2013-09-06 10:57:00,
2013-09-06 06:58:00,46.2,46.2,30.27,NNE,30,0.0,0.0,100,0.00,,,0.00,1.04,VWS V14.01,2013-09-06 10:58:00,
2013-09-06 06:59:00,45.9,45.9,30.27,NNE,30,0.0,0.0,100,0.00,,,0.00,1.22,VWS V14.01,2013-09-06 10:59:00,
2013-09-06 07:01:00,46.0,46.0,30.27,NNE,30,0.0,0.0,100,0.00,,,0.00,2.26,VWS V14.01,2013-09-06 11:01:00,
2013-09-06 07:03:00,45.8,45.8,30.28,NNE,30,0.0,0.0,100,0.00,,,0.00,2.26,VWS V14.01,2013-09-06 11:03:00,
2013-09-06 07:04:00,45.7,45.7,30.27,NNE,30,0.0,0.0,100,0.00,,,0.00,2.26,VWS V14.01,2013-09-06 11:04:00,
2013-09-06 07:06:00,45.3,45.3,30.27,NNE,30,0.0,0.0,100,0.00,,,0.00,2.26,VWS V14.01,2013-09-06 11:06:00,
2013-09-06 07:07:00,45.1,45.1,30.27,NNE,30,0.0,0.0,100,0.00,,,0.00,2.75,VWS V14.01,2013-09-06 11:07:00,
2013-09-06 07:09:00,45.2,45.2,30.27,NNW,336,0.0,0.0,100,0.00,,,0.00,3.91,VWS V14.01,2013-09-06 11:09:00,
2013-09-06 07:10:00,45.7,45.7,30.28,NNW,336,0.0,0.0,100,0.00,,,0.00,4.40,VWS V14.01,2013-09-06 11:10:00,
2013-09-06 07:12:00,45.3,45.3,30.27,NNW,336,0.0,0.0,100,0.00,,,0.00,4.70,VWS V14.01,2013-09-06 11:12:00,
2013-09-06 07:13:00,46.1,46.1,30.27,NNW,336,0.0,0.0,100,0.00,,,0.00,5.43,VWS V14.01,2013-09-06 11:13:00,
2013-09-06 07:14:00,46.1,46.1,30.27,NNW,336,0.0,0.0,100,0.00,,,0.00,7.45,VWS V14.01,2013-09-06 11:14:00,
2013-09-06 07:15:00,45.9,45.9,30.27,NNW,336,0.0,0.0,100,0.00,,,0.00,7.39,VWS V14.01,2013-09-06 11:15:00,
2013-09-06 07:18:00,44.8,44.8,30.28,NNW,336,0.0,0.0,100,0.00,,,0.00,9.58,VWS V14.01,2013-09-06 11:18:00,
2013-09-06 07:19:00,45.0,45.0,30.28,NNW,336,0.0,0.0,100,0.00,,,0.00,11.05,VWS V14.01,2013-09-06 11:19:00,
2013-09-06 07:20:00,46.1,46.1,30.28,NNW,336,0.0,0.0,100,0.00,,,0.00,12.03,VWS V14.01,2013-09-06 11:20:00,
2013-09-06 07:21:00,46.1,46.1,30.28,NNW,336,0.0,0.0,100,0.00,,,0.00,12.03,VWS V14.01,2013-09-06 11:21:00,
2013-09-06 07:23:00,45.5,45.5,30.27,NNW,336,0.0,0.0,100,0.00,,,0.00,13.13,VWS V14.01,2013-09-06 11:23:00,
2013-09-06 07:24:00,45.5,45.5,30.27,NNW,336,0.0,0.0,100,0.00,,,0.00,13.13,VWS V14.01,2013-09-06 11:24:00,
2013-09-06 07:25:00,45.7,45.7,30.27,NNW,336,0.0,0.0,100,0.00,,,0.00,22.10,VWS V14.01,2013-09-06 11:25:00,
2013-09-06 07:26:00,46.2,46.2,30.27,NNW,336,0.0,0.0,100,0.00,,,0.00,31.44,VWS V14.01,2013-09-06 11:26:00,
2013-09-06 07:29:00,47.2,47.2,30.27,NNW,336,0.0,0.0,100,0.00,,,0.00,36.69,VWS V14.01,2013-09-06 11:29:00,
2013-09-06 07:30:00,47.3,47.3,30.27,NNW,336,0.0,0.0,100,0.00,,,0.00,39.19,VWS V14.01,2013-09-06 11:30:00,
2013-09-06 07:31:00,47.0,47.0,30.28,NNW,336,0.0,0.0,100,0.00,,,0.00,41.33,VWS V14.01,2013-09-06 11:31:00,
2013-09-06 07:32:00,47.0,47.0,30.28,NNW,336,0.0,0.0,100,0.00,,,0.00,40.42,VWS V14.01,2013-09-06 11:32:00,
2013-09-06 07:36:00,48.8,48.8,30.27,NNW,336,0.0,0.0,100,0.00,,,0.00,50.37,VWS V14.01,2013-09-06 11:36:00,
2013-09-06 07:37:00,48.7,48.7,30.27,NNW,336,0.0,0.0,100,0.00,,,0.00,51.59,VWS V14.01,2013-09-06 11:37:00,
2013-09-06 07:39:00,50.2,50.2,30.28,NNW,336,0.0,0.0,100,0.00,,,0.00,56.23,VWS V14.01,2013-09-06 11:39:00,
2013-09-06 07:41:00,49.8,49.8,30.28,NNW,336,0.0,0.0,100,0.00,,,0.00,59.65,VWS V14.01,2013-09-06 11:41:00,
2013-09-06 07:42:00,49.9,49.8,30.28,NNW,336,0.0,0.0,100,0.00,,,0.00,61.48,VWS V14.01,2013-09-06 11:42:00,
2013-09-06 07:43:00,51.0,49.7,30.27,NNW,336,0.0,0.0,95,0.00,,,0.00,65.75,VWS V14.01,2013-09-06 11:43:00,
2013-09-06 07:44:00,49.9,47.8,30.28,NNW,336,0.0,0.0,92,0.00,,,0.00,67.89,VWS V14.01,2013-09-06 11:44:00,
2013-09-06 07:46:00,50.3,47.0,30.28,NNW,336,0.0,0.0,88,0.00,,,0.00,70.33,VWS V14.01,2013-09-06 11:46:00,
2013-09-06 07:47:00,51.7,48.1,30.28,NNW,336,0.0,0.0,87,0.00,,,0.00,73.08,VWS V14.01,2013-09-06 11:47:00,
2013-09-06 07:48:00,53.3,49.5,30.27,NNW,336,0.0,0.0,87,0.00,,,0.00,73.08,VWS V14.01,2013-09-06 11:48:00,
2013-09-06 07:49:00,52.2,48.1,30.27,NNW,336,0.0,0.0,86,0.00,,,0.00,75.52,VWS V14.01,2013-09-06 11:49:00,
2013-09-06 07:50:00,50.5,45.3,30.27,NNW,336,0.0,0.0,82,0.00,,,0.00,77.96,VWS V14.01,2013-09-06 11:50:00,
2013-09-06 07:51:00,50.1,45.1,30.27,NNW,336,0.0,0.0,83,0.00,,,0.00,82.17,VWS V14.01,2013-09-06 11:51:00,
2013-09-06 07:53:00,50.0,45.3,30.28,NNW,336,0.0,0.0,84,0.00,,,0.00,83.58,VWS V14.01,2013-09-06 11:53:00,
2013-09-06 07:55:00,51.3,46.5,30.27,NNW,336,0.0,0.0,84,0.00,,,0.00,90.17,VWS V14.01,2013-09-06 11:55:00,
2013-09-06 07:56:00,51.9,47.0,30.26,NNW,336,0.0,0.0,83,0.00,,,0.00,90.84,VWS V14.01,2013-09-06 11:56:00,
2013-09-06 07:58:00,51.0,45.6,30.27,NNW,336,0.0,0.0,82,0.00,,,0.00,95.06,VWS V14.01,2013-09-06 11:58:00,
2013-09-06 07:59:00,51.6,46.3,30.28,NNW,336,0.0,0.0,82,0.00,,,0.00,97.19,VWS V14.01,2013-09-06 11:59:00,
2013-09-06 08:00:00,53.2,47.6,30.27,NNW,336,0.0,0.0,81,0.00,,,0.00,100.18,VWS V14.01,2013-09-06 12:00:00,
2013-09-06 08:01:00,54.3,48.4,30.26,NNW,336,0.0,0.0,80,0.00,,,0.00,102.38,VWS V14.01,2013-09-06 12:01:00,
2013-09-06 08:05:00,49.6,42.0,30.27,NNW,336,0.0,0.0,75,0.00,,,0.00,109.95,VWS V14.01,2013-09-06 12:05:00,
2013-09-06 08:06:00,50.2,42.0,30.27,NNW,336,0.0,0.0,73,0.00,,,0.00,112.15,VWS V14.01,2013-09-06 12:06:00,
2013-09-06 08:07:00,50.1,44.1,30.27,NNW,336,0.0,0.0,80,0.00,,,0.00,114.84,VWS V14.01,2013-09-06 12:07:00,
2013-09-06 08:08:00,50.0,44.2,30.27,NNW,336,0.0,0.0,80,0.00,,,0.00,116.73,VWS V14.01,2013-09-06 12:08:00,
2013-09-06 08:10:00,51.1,45.8,30.28,NNW,336,0.0,0.0,82,0.00,,,0.00,121.18,VWS V14.01,2013-09-06 12:10:00,
2013-09-06 08:12:00,50.9,44.5,30.27,NNW,336,0.0,0.0,79,0.00,,,0.00,125.21,VWS V14.01,2013-09-06 12:12:00,
2013-09-06 08:13:00,51.2,44.6,30.26,NNW,336,0.0,0.0,78,0.00,,,0.00,126.80,VWS V14.01,2013-09-06 12:13:00,
2013-09-06 08:14:00,51.9,45.3,30.26,NNW,336,0.0,0.0,78,0.00,,,0.00,129.00,VWS V14.01,2013-09-06 12:14:00,
2013-09-06 08:16:00,52.3,45.4,30.27,NNW,336,0.0,0.0,77,0.00,,,0.00,132.60,VWS V14.01,2013-09-06 12:16:00,
2013-09-06 08:18:00,53.7,46.0,30.27,NNW,336,0.0,0.0,75,0.00,,,0.00,138.77,VWS V14.01,2013-09-06 12:18:00,
2013-09-06 08:20:00,53.5,45.3,30.28,NNW,336,0.0,0.0,74,0.00,,,0.00,141.45,VWS V14.01,2013-09-06 12:20:00,
2013-09-06 08:21:00,55.6,47.9,30.27,NNW,336,0.0,0.0,75,0.00,,,0.00,143.16,VWS V14.01,2013-09-06 12:21:00,
2013-09-06 08:22:00,54.9,46.9,30.27,NNW,336,0.0,0.0,74,0.00,,,0.00,144.20,VWS V14.01,2013-09-06 12:22:00,
2013-09-06 08:23:00,55.0,45.0,30.26,NNW,336,0.0,0.0,69,0.00,,,0.00,148.23,VWS V14.01,2013-09-06 12:23:00,
2013-09-06 08:24:00,54.7,43.8,30.26,NNW,336,0.0,0.0,66,0.00,,,0.00,149.02,VWS V14.01,2013-09-06 12:24:00,
2013-09-06 08:26:00,60.5,49.3,30.26,NNW,336,0.0,0.0,67,0.00,,,0.00,153.66,VWS V14.01,2013-09-06 12:26:00,
2013-09-06 08:27:00,59.0,46.2,30.30,NNW,336,0.0,0.0,62,0.00,,,0.00,158.30,VWS V14.01,2013-09-06 12:27:00,
2013-09-06 08:28:00,59.3,45.7,30.27,NNW,336,0.0,0.0,61,0.00,,,0.00,159.40,VWS V14.01,2013-09-06 12:28:00,
2013-09-06 08:29:00,57.3,43.2,30.27,NNW,336,0.0,0.0,59,0.00,,,0.00,160.68,VWS V14.01,2013-09-06 12:29:00,
2013-09-06 08:31:00,60.0,47.1,30.27,NNW,336,0.0,0.0,62,0.00,,,0.00,163.43,VWS V14.01,2013-09-06 12:31:00,
2013-09-06 08:32:00,58.0,43.7,30.27,NNW,336,0.0,0.0,59,0.00,,,0.00,165.87,VWS V14.01,2013-09-06 12:32:00,
2013-09-06 08:33:00,59.2,44.5,30.27,NNW,336,0.0,0.0,58,0.00,,,0.00,168.86,VWS V14.01,2013-09-06 12:33:00,
2013-09-06 08:36:00,63.2,48.6,30.26,NNW,336,0.0,0.0,59,0.00,,,0.00,176.25,VWS V14.01,2013-09-06 12:36:00,
2013-09-06 08:37:00,63.9,48.7,30.26,NNW,336,0.0,0.0,58,0.00,,,0.00,179.98,VWS V14.01,2013-09-06 12:37:00,
2013-09-06 08:39:00,63.2,47.2,30.25,NNW,336,0.0,0.0,56,0.00,,,0.00,186.02,VWS V14.01,2013-09-06 12:39:00,
2013-09-06 08:41:00,58.6,41.2,30.27,NNW,336,0.0,0.0,52,0.00,,,0.00,185.16,VWS V14.01,2013-09-06 12:41:00,
2013-09-06 08:42:00,57.4,40.5,30.26,NNW,336,0.0,0.0,53,0.00,,,0.00,188.71,VWS V14.01,2013-09-06 12:42:00,
2013-09-06 08:43:00,57.1,41.9,30.26,West,259,0.0,0.0,57,0.00,,,0.00,195.18,VWS V14.01,2013-09-06 12:43:00,
2013-09-06 08:45:00,57.2,42.8,30.26,SSW,194,0.0,0.0,59,0.00,,,0.00,200.06,VWS V14.01,2013-09-06 12:45:00,
2013-09-06 08:47:00,59.0,44.7,30.25,SSW,194,0.0,0.0,59,0.00,,,0.00,207.51,VWS V14.01,2013-09-06 12:47:00,
2013-09-06 08:48:00,57.9,43.4,30.26,SSW,194,0.0,0.0,58,0.00,,,0.00,208.30,VWS V14.01,2013-09-06 12:48:00,
2013-09-06 08:49:00,59.8,45.6,30.26,SSW,194,0.0,0.0,59,0.00,,,0.00,209.77,VWS V14.01,2013-09-06 12:49:00,
2013-09-06 08:51:00,56.4,39.3,30.26,South,186,2.8,2.8,52,0.00,,,0.00,217.83,VWS V14.01,2013-09-06 12:51:00,
2013-09-06 08:52:00,58.6,44.0,30.26,SSW,203,0.0,2.8,58,0.00,,,0.00,219.66,VWS V14.01,2013-09-06 12:52:00,
2013-09-06 08:53:00,59.1,43.3,30.29,SSW,203,0.0,0.0,56,0.00,,,0.00,222.96,VWS V14.01,2013-09-06 12:53:00,
2013-09-06 08:55:00,56.1,40.5,30.26,South,187,3.0,3.4,56,0.00,,,0.00,227.29,VWS V14.01,2013-09-06 12:55:00,
2013-09-06 08:56:00,57.0,42.1,30.25,South,183,1.1,3.4,57,0.00,,,0.00,227.90,VWS V14.01,2013-09-06 12:56:00,
2013-09-06 08:59:00,59.5,45.7,30.25,South,181,0.0,3.2,60,0.00,,,0.00,238.16,VWS V14.01,2013-09-06 12:59:00,
2013-09-06 09:00:00,58.8,43.8,30.25,South,180,1.1,1.8,57,0.00,,,0.00,240.84,VWS V14.01,2013-09-06 13:00:00,
2013-09-06 09:01:00,58.8,43.5,30.25,South,180,1.1,1.1,57,0.00,,,0.00,241.58,VWS V14.01,2013-09-06 13:01:00,
2013-09-06 09:02:00,61.3,46.7,30.25,South,180,0.0,0.0,59,0.00,,,0.00,244.99,VWS V14.01,2013-09-06 13:02:00,
2013-09-06 09:03:00,59.7,42.8,30.25,SE,133,1.8,1.8,54,0.00,,,0.00,247.19,VWS V14.01,2013-09-06 13:03:00,
2013-09-06 09:04:00,59.1,42.1,30.29,SSE,166,1.1,1.1,53,0.00,,,0.00,251.34,VWS V14.01,2013-09-06 13:04:00,
2013-09-06 09:06:00,59.0,42.4,30.25,South,173,3.0,4.0,54,0.00,,,0.00,258.18,VWS V14.01,2013-09-06 13:06:00,
2013-09-06 09:07:00,58.1,41.6,30.25,South,188,2.8,2.8,54,0.00,,,0.00,262.09,VWS V14.01,2013-09-06 13:07:00,
2013-09-06 09:08:00,58.1,41.6,30.25,South,188,2.8,2.8,54,0.00,,,0.00,262.09,VWS V14.01,2013-09-06 13:08:00,
2013-09-06 09:11:00,59.5,43.5,30.25,South,177,2.7,3.2,55,0.00,,,0.00,268.44,VWS V14.01,2013-09-06 13:11:00,
2013-09-06 09:12:00,59.3,42.3,30.24,SSE,163,4.2,4.2,53,0.00,,,0.00,267.22,VWS V14.01,2013-09-06 13:12:00,
2013-09-06 09:13:00,59.3,43.2,30.25,SSW,202,2.3,4.5,55,0.00,,,0.00,273.32,VWS V14.01,2013-09-06 13:13:00,
2013-09-06 09:15:00,58.6,42.7,30.25,South,185,3.5,3.7,55,0.00,,,0.00,272.59,VWS V14.01,2013-09-06 13:15:00,
2013-09-06 09:17:00,59.0,41.5,30.25,SSW,194,3.4,3.7,52,0.00,,,0.00,287.73,VWS V14.01,2013-09-06 13:17:00,
2013-09-06 09:19:00,59.6,42.0,30.26,South,180,3.5,3.5,52,0.00,,,0.00,293.77,VWS V14.01,2013-09-06 13:19:00,
2013-09-06 09:20:00,60.0,40.8,30.25,SSE,166,3.5,3.5,49,0.00,,,0.00,297.01,VWS V14.01,2013-09-06 13:20:00,
2013-09-06 09:21:00,59.4,41.1,30.25,South,180,2.8,3.5,51,0.00,,,0.00,299.94,VWS V14.01,2013-09-06 13:21:00,
2013-09-06 09:23:00,59.7,41.4,30.25,South,174,3.7,5.1,51,0.00,,,0.00,304.33,VWS V14.01,2013-09-06 13:23:00,
2013-09-06 09:25:00,60.9,42.4,30.25,SSW,207,2.3,2.5,50,0.00,,,0.00,312.09,VWS V14.01,2013-09-06 13:25:00,
2013-09-06 09:26:00,59.2,40.3,30.25,SSW,203,3.5,3.5,49,0.00,,,0.00,312.52,VWS V14.01,2013-09-06 13:26:00,
2013-09-06 09:27:00,58.9,39.8,30.25,South,188,4.4,4.4,49,0.00,,,0.00,315.14,VWS V14.01,2013-09-06 13:27:00,
2013-09-06 09:29:00,59.5,41.1,30.24,SSW,195,4.0,4.0,50,0.00,,,0.00,322.53,VWS V14.01,2013-09-06 13:29:00,
2013-09-06 09:30:00,59.1,41.0,30.25,SSW,192,4.0,4.0,51,0.00,,,0.00,322.65,VWS V14.01,2013-09-06 13:30:00,
2013-09-06 09:31:00,59.5,41.5,30.25,SSW,209,2.7,4.0,51,0.00,,,0.00,326.31,VWS V14.01,2013-09-06 13:31:00,
2013-09-06 09:32:00,59.8,40.5,30.24,South,180,3.9,3.9,49,0.00,,,0.00,329.49,VWS V14.01,2013-09-06 13:32:00,
2013-09-06 09:33:00,60.2,41.2,30.24,SSW,205,3.5,3.9,49,0.00,,,0.00,331.56,VWS V14.01,2013-09-06 13:33:00,
2013-09-06 09:35:00,60.5,41.2,30.24,SW,220,4.2,4.2,49,0.00,,,0.00,337.79,VWS V14.01,2013-09-06 13:35:00,
2013-09-06 09:37:00,61.3,41.9,30.24,SSE,158,1.6,3.5,49,0.00,,,0.00,341.82,VWS V14.01,2013-09-06 13:37:00,
2013-09-06 09:38:00,62.3,41.0,30.25,SE,135,2.3,2.3,45,0.00,,,0.00,346.58,VWS V14.01,2013-09-06 13:38:00,
2013-09-06 09:39:00,62.2,40.5,30.25,South,169,3.9,3.9,45,0.00,,,0.00,347.01,VWS V14.01,2013-09-06 13:39:00,
2013-09-06 09:40:00,61.9,39.6,30.25,SSE,160,3.9,3.9,44,0.00,,,0.00,348.84,VWS V14.01,2013-09-06 13:40:00,
2013-09-06 09:42:00,61.3,40.4,30.24,SSE,161,4.4,5.7,46,0.00,,,0.00,356.41,VWS V14.01,2013-09-06 13:42:00,
2013-09-06 09:45:00,62.0,39.7,30.24,SW,216,3.5,3.5,44,0.00,,,0.00,358.79,VWS V14.01,2013-09-06 13:45:00,
2013-09-06 09:46:00,59.9,36.8,30.24,South,191,7.3,7.3,42,0.00,,,0.00,360.93,VWS V14.01,2013-09-06 13:46:00,
2013-09-06 09:47:00,60.8,38.1,30.24,SSW,196,5.4,7.3,43,0.00,,,0.00,366.12,VWS V14.01,2013-09-06 13:47:00,
2013-09-06 09:49:00,62.6,41.1,30.25,South,186,4.5,5.6,45,0.00,,,0.00,373.75,VWS V14.01,2013-09-06 13:49:00,
2013-09-06 09:50:00,61.4,38.7,30.24,South,185,4.4,4.5,43,0.00,,,0.00,373.93,VWS V14.01,2013-09-06 13:50:00,
2013-09-06 09:51:00,61.3,36.0,30.24,South,187,4.0,5.6,39,0.00,,,0.00,373.02,VWS V14.01,2013-09-06 13:51:00,
2013-09-06 09:52:00,61.3,38.2,30.24,South,188,3.5,5.6,42,0.00,,,0.00,377.11,VWS V14.01,2013-09-06 13:52:00,
2013-09-06 09:55:00,62.1,39.2,30.24,South,178,3.0,4.0,43,0.00,,,0.00,387.61,VWS V14.01,2013-09-06 13:55:00,
2013-09-06 09:56:00,62.1,38.6,30.24,SSW,202,3.5,3.5,42,0.00,,,0.00,392.86,VWS V14.01,2013-09-06 13:56:00,
2013-09-06 09:57:00,63.4,39.0,30.24,South,172,3.7,4.0,41,0.00,,,0.00,396.34,VWS V14.01,2013-09-06 13:57:00,
2013-09-06 09:58:00,63.8,39.0,30.25,South,178,3.0,3.7,40,0.00,,,0.00,395.91,VWS V14.01,2013-09-06 13:58:00,
2013-09-06 09:59:00,61.6,35.9,30.23,ESE,110,4.9,4.9,38,0.00,,,0.00,400.31,VWS V14.01,2013-09-06 13:59:00,
2013-09-06 10:00:00,65.3,40.0,30.24,ESE,113,2.3,4.9,39,0.00,,,0.00,402.75,VWS V14.01,2013-09-06 14:00:00,
2013-09-06 10:02:00,63.2,36.6,30.24,SE,139,4.4,4.5,37,0.00,,,0.00,407.63,VWS V14.01,2013-09-06 14:02:00,
2013-09-06 10:03:00,64.6,39.3,30.27,SW,230,3.2,3.2,39,0.00,,,0.00,412.52,VWS V14.01,2013-09-06 14:03:00,
2013-09-06 10:04:00,64.5,40.1,30.24,SW,220,1.0,3.2,41,0.00,,,0.00,413.98,VWS V14.01,2013-09-06 14:04:00,
2013-09-06 10:05:00,63.3,34.6,30.24,SE,136,4.9,4.9,34,0.00,,,0.00,417.89,VWS V14.01,2013-09-06 14:05:00,
2013-09-06 10:07:00,62.2,34.6,30.23,ESE,120,5.9,5.9,36,0.00,,,0.00,418.01,VWS V14.01,2013-09-06 14:07:00,
2013-09-06 10:08:00,63.0,35.7,30.26,SE,138,6.1,6.1,36,0.00,,,0.00,429.37,VWS V14.01,2013-09-06 14:08:00,
2013-09-06 10:09:00,63.9,36.7,30.24,ENE,71,1.5,6.1,36,0.00,,,0.00,431.56,VWS V14.01,2013-09-06 14:09:00,
2013-09-06 10:10:00,63.5,35.3,30.24,East,92,5.6,5.6,35,0.00,,,0.00,434.49,VWS V14.01,2013-09-06 14:10:00,
2013-09-06 10:12:00,64.3,35.5,30.24,SE,145,3.0,7.3,34,0.00,,,0.00,402.44,VWS V14.01,2013-09-06 14:12:00,
2013-09-06 10:13:00,63.6,32.0,30.24,South,185,5.1,5.1,30,0.00,,,0.00,402.26,VWS V14.01,2013-09-06 14:13:00,
2013-09-06 10:14:00,62.3,33.7,30.24,ESE,120,5.1,5.4,34,0.00,,,0.00,378.33,VWS V14.01,2013-09-06 14:14:00,
2013-09-06 10:15:00,64.3,36.9,30.24,South,185,3.5,5.4,36,0.00,,,0.00,360.87,VWS V14.01,2013-09-06 14:15:00,
2013-09-06 10:16:00,63.0,34.3,30.23,South,191,5.2,5.2,34,0.00,,,0.00,322.16,VWS V14.01,2013-09-06 14:16:00,
2013-09-06 10:18:00,63.0,35.3,30.24,SSW,205,5.2,5.2,35,0.00,,,0.00,392.98,VWS V14.01,2013-09-06 14:18:00,
2013-09-06 10:19:00,62.9,33.5,30.24,SSW,199,5.2,5.2,33,0.00,,,0.00,422.53,VWS V14.01,2013-09-06 14:19:00,
2013-09-06 10:20:00,64.7,37.2,30.24,South,176,4.7,5.4,36,0.00,,,0.00,435.23,VWS V14.01,2013-09-06 14:20:00,
2013-09-06 10:21:00,63.5,34.5,30.24,SE,144,6.1,6.1,34,0.00,,,0.00,451.47,VWS V14.01,2013-09-06 14:21:00,
2013-09-06 10:23:00,64.6,35.3,30.24,SSE,168,3.7,5.2,34,0.00,,,0.00,472.28,VWS V14.01,2013-09-06 14:23:00,
2013-09-06 10:25:00,65.9,35.9,30.24,SE,137,3.7,4.2,33,0.00,,,0.00,435.23,VWS V14.01,2013-09-06 14:25:00,
2013-09-06 10:26:00,64.3,33.0,30.24,South,173,3.7,4.9,31,0.00,,,0.00,466.24,VWS V14.01,2013-09-06 14:26:00,
2013-09-06 10:27:00,65.1,34.8,30.24,South,182,5.6,5.6,32,0.00,,,0.00,473.26,VWS V14.01,2013-09-06 14:27:00,
2013-09-06 10:28:00,65.1,34.5,30.24,South,172,6.4,6.4,32,0.00,,,0.00,475.76,VWS V14.01,2013-09-06 14:28:00,
2013-09-06 10:31:00,66.2,35.6,30.24,SSE,165,3.7,5.9,32,0.00,,,0.00,488.83,VWS V14.01,2013-09-06 14:31:00,
2013-09-06 10:32:00,65.6,34.7,30.23,South,181,3.0,4.4,32,0.00,,,0.00,493.35,VWS V14.01,2013-09-06 14:32:00,
2013-09-06 10:33:00,65.6,34.7,30.23,South,181,3.0,4.4,32,0.00,,,0.00,493.35,VWS V14.01,2013-09-06 14:33:00,
2013-09-06 10:34:00,65.1,33.4,30.24,South,173,5.9,6.6,31,0.00,,,0.00,490.90,VWS V14.01,2013-09-06 14:34:00,
2013-09-06 10:36:00,64.5,32.0,30.24,SSE,165,6.8,6.8,30,0.00,,,0.00,486.39,VWS V14.01,2013-09-06 14:36:00,
2013-09-06 10:38:00,65.4,34.1,30.24,South,169,5.1,5.1,31,0.00,,,0.00,484.80,VWS V14.01,2013-09-06 14:38:00,
2013-09-06 10:39:00,65.1,34.1,30.22,South,169,7.1,7.1,31,0.00,,,0.00,495.36,VWS V14.01,2013-09-06 14:39:00,
2013-09-06 10:40:00,64.4,33.5,30.22,South,183,5.2,7.1,31,0.00,,,0.00,493.71,VWS V14.01,2013-09-06 14:40:00,
2013-09-06 10:42:00,63.7,32.1,30.23,South,191,5.6,5.6,31,0.00,,,0.00,515.81,VWS V14.01,2013-09-06 14:42:00,
2013-09-06 10:43:00,63.8,32.8,30.23,SSW,201,5.2,5.6,31,0.00,,,0.00,512.39,VWS V14.01,2013-09-06 14:43:00,
2013-09-06 10:44:00,63.7,32.8,30.23,SSW,203,7.3,7.3,31,0.00,,,0.00,471.37,VWS V14.01,2013-09-06 14:44:00,
2013-09-06 10:45:00,64.2,33.5,30.23,South,191,7.1,7.3,32,0.00,,,0.00,512.88,VWS V14.01,2013-09-06 14:45:00,
2013-09-06 10:46:00,65.4,34.8,30.23,SSE,168,5.4,7.1,32,0.00,,,0.00,520.70,VWS V14.01,2013-09-06 14:46:00,
2013-09-06 10:48:00,65.8,36.8,30.23,SSW,195,4.9,5.4,34,0.00,,,0.00,532.11,VWS V14.01,2013-09-06 14:48:00,
2013-09-06 10:49:00,65.5,35.1,30.22,SW,217,7.5,8.0,32,0.00,,,0.00,527.90,VWS V14.01,2013-09-06 14:49:00,
2013-09-06 10:50:00,65.2,32.9,30.22,SW,217,5.1,5.6,30,0.00,,,0.00,457.08,VWS V14.01,2013-09-06 14:50:00,
2013-09-06 10:52:00,65.2,33.0,30.22,SE,142,3.2,3.2,30,0.00,,,0.00,454.52,VWS V14.01,2013-09-06 14:52:00,
2013-09-06 10:53:00,64.1,33.4,30.23,SSW,202,8.0,8.0,32,0.00,,,0.00,415.20,VWS V14.01,2013-09-06 14:53:00,
2013-09-06 10:54:00,63.9,32.9,30.23,South,191,7.3,7.3,31,0.00,,,0.00,424.42,VWS V14.01,2013-09-06 14:54:00,
2013-09-06 10:55:00,64.4,33.8,30.24,SSW,201,5.9,7.3,32,0.00,,,0.00,449.15,VWS V14.01,2013-09-06 14:55:00,
2013-09-06 10:56:00,64.5,34.7,30.23,SSW,207,5.2,6.1,33,0.00,,,0.00,489.32,VWS V14.01,2013-09-06 14:56:00,
2013-09-06 10:58:00,65.2,33.9,30.23,South,171,3.0,3.0,31,0.00,,,0.00,499.88,VWS V14.01,2013-09-06 14:58:00,
2013-09-06 11:00:00,64.8,35.0,30.23,SSW,205,6.1,6.4,33,0.00,,,0.00,424.12,VWS V14.01,2013-09-06 15:00:00,
2013-09-06 11:01:00,64.3,33.8,30.22,SSW,202,6.3,6.3,32,0.00,,,0.00,492.80,VWS V14.01,2013-09-06 15:01:00,
2013-09-06 11:02:00,66.2,35.2,30.22,SSE,155,3.2,6.3,32,0.00,,,0.00,515.32,VWS V14.01,2013-09-06 15:02:00,
2013-09-06 11:03:00,64.7,33.1,30.23,SSW,196,6.4,6.4,31,0.00,,,0.00,518.01,VWS V14.01,2013-09-06 15:03:00,
2013-09-06 11:05:00,65.8,35.5,30.22,South,183,6.3,6.3,33,0.00,,,0.00,516.91,VWS V14.01,2013-09-06 15:05:00,
2013-09-06 11:07:00,64.8,33.9,30.23,SSW,206,6.8,6.9,32,0.00,,,0.00,492.12,VWS V14.01,2013-09-06 15:07:00,
2013-09-06 11:08:00,64.8,33.9,30.23,SSW,206,6.8,6.9,32,0.00,,,0.00,492.12,VWS V14.01,2013-09-06 15:08:00,
2013-09-06 11:09:00,65.5,34.3,30.23,South,179,5.4,5.4,31,0.00,,,0.00,429.61,VWS V14.01,2013-09-06 15:09:00,
2013-09-06 11:10:00,65.9,35.6,30.22,SSW,194,5.9,5.9,32,0.00,,,0.00,407.57,VWS V14.01,2013-09-06 15:10:00,
2013-09-06 11:12:00,65.0,34.2,30.22,South,185,5.9,5.9,32,0.00,,,0.00,441.21,VWS V14.01,2013-09-06 15:12:00,
2013-09-06 11:13:00,65.3,34.2,30.22,SSW,204,3.5,5.9,31,0.00,,,0.00,444.26,VWS V14.01,2013-09-06 15:13:00,
2013-09-06 11:14:00,65.0,33.6,30.22,SSW,192,6.9,7.6,31,0.00,,,0.00,465.08,VWS V14.01,2013-09-06 15:14:00,
2013-09-06 11:15:00,65.2,34.7,30.22,SSW,195,6.1,6.9,32,0.00,,,0.00,489.80,VWS V14.01,2013-09-06 15:15:00,
2013-09-06 11:19:00,65.2,31.8,30.22,SE,136,7.1,8.0,29,0.00,,,0.00,551.40,VWS V14.01,2013-09-06 15:19:00,
2013-09-06 11:20:00,67.5,34.4,30.22,SSW,193,4.9,7.1,29,0.00,,,0.00,593.22,VWS V14.01,2013-09-06 15:20:00,
2013-09-06 11:21:00,67.6,34.9,30.22,SSE,162,3.0,4.0,30,0.00,,,0.00,592.80,VWS V14.01,2013-09-06 15:21:00,
2013-09-06 11:25:00,67.1,34.9,30.22,SW,236,3.4,3.4,30,0.00,,,0.00,524.60,VWS V14.01,2013-09-06 15:25:00,
2013-09-06 11:26:00,66.7,34.2,30.21,South,175,2.8,3.4,30,0.00,,,0.00,531.44,VWS V14.01,2013-09-06 15:26:00,
2013-09-06 11:27:00,67.7,34.4,30.22,SE,138,4.5,4.5,29,0.00,,,0.00,571.98,VWS V14.01,2013-09-06 15:27:00,
2013-09-06 11:28:00,68.7,35.6,30.22,SSE,156,4.2,4.5,29,0.00,,,0.00,574.05,VWS V14.01,2013-09-06 15:28:00,
2013-09-06 11:31:00,68.7,29.6,30.22,SE,129,0.0,2.5,23,0.00,,,0.00,392.98,VWS V14.01,2013-09-06 15:31:00,
2013-09-06 11:32:00,64.7,30.0,30.22,SSW,197,10.4,10.4,27,0.00,,,0.00,396.03,VWS V14.01,2013-09-06 15:32:00,
2013-09-06 11:33:00,65.6,32.2,30.22,South,188,4.0,10.4,29,0.00,,,0.00,426.68,VWS V14.01,2013-09-06 15:33:00,
2013-09-06 11:34:00,65.4,32.3,30.22,SSW,193,7.3,7.3,29,0.00,,,0.00,458.67,VWS V14.01,2013-09-06 15:34:00,
2013-09-06 11:37:00,67.1,31.8,30.22,SSW,212,3.2,6.4,27,0.00,,,0.00,575.82,VWS V14.01,2013-09-06 15:37:00,
2013-09-06 11:38:00,67.0,34.2,30.21,SW,225,6.1,7.5,30,0.00,,,0.00,617.46,VWS V14.01,2013-09-06 15:38:00,
2013-09-06 11:39:00,67.3,33.7,30.21,SW,220,6.1,7.5,29,0.00,,,0.00,588.77,VWS V14.01,2013-09-06 15:39:00,
2013-09-06 11:41:00,66.6,32.5,30.21,SW,217,6.6,6.6,28,0.00,,,0.00,571.25,VWS V14.01,2013-09-06 15:41:00,
2013-09-06 11:42:00,65.8,32.0,30.21,South,178,9.2,9.2,28,0.00,,,0.00,546.83,VWS V14.01,2013-09-06 15:42:00,
2013-09-06 11:44:00,68.0,34.9,30.22,SSE,162,4.2,4.2,29,0.00,,,0.00,615.20,VWS V14.01,2013-09-06 15:44:00,
2013-09-06 11:46:00,70.0,36.3,30.22,SSE,154,1.0,3.2,29,0.00,,,0.00,619.54,VWS V14.01,2013-09-06 15:46:00,
2013-09-06 11:47:00,67.8,31.6,30.22,South,186,3.7,3.7,26,0.00,,,0.00,627.17,VWS V14.01,2013-09-06 15:47:00,
2013-09-06 11:48:00,67.6,32.6,30.22,SSW,194,3.0,3.7,27,0.00,,,0.00,626.80,VWS V14.01,2013-09-06 15:48:00,
2013-09-06 11:49:00,67.6,32.6,30.22,SSW,194,3.0,3.7,27,0.00,,,0.00,626.80,VWS V14.01,2013-09-06 15:49:00,
2013-09-06 11:52:00,68.1,35.6,30.21,SW,222,7.3,7.3,30,0.00,,,0.00,632.30,VWS V14.01,2013-09-06 15:52:00,
2013-09-06 11:53:00,68.1,34.8,30.21,SW,234,4.0,7.3,29,0.00,,,0.00,642.31,VWS V14.01,2013-09-06 15:53:00,
2013-09-06 11:54:00,66.7,32.6,30.21,WNW,291,4.5,4.5,28,0.00,,,0.00,637.00,VWS V14.01,2013-09-06 15:54:00,
2013-09-06 11:55:00,66.7,32.6,30.21,WNW,291,4.5,4.5,28,0.00,,,0.00,637.00,VWS V14.01,2013-09-06 15:55:00,
2013-09-06 11:56:00,66.6,31.5,30.22,SSW,196,5.7,7.8,27,0.00,,,0.00,649.39,VWS V14.01,2013-09-06 15:56:00,
2013-09-06 11:57:00,67.2,32.7,30.21,SSW,194,4.2,7.6,28,0.00,,,0.00,632.30,VWS V14.01,2013-09-06 15:57:00,
2013-09-06 12:00:00,67.2,32.0,30.21,ESE,120,4.5,5.6,27,0.00,,,0.00,634.62,VWS V14.01,2013-09-06 16:00:00,
2013-09-06 12:01:00,67.8,34.8,30.23,West,267,3.5,3.5,29,0.00,,,0.00,617.64,VWS V14.01,2013-09-06 16:01:00,
2013-09-06 12:02:00,67.8,34.4,30.22,WSW,242,4.4,4.4,29,0.00,,,0.00,638.89,VWS V14.01,2013-09-06 16:02:00,
2013-09-06 12:06:00,66.6,32.5,30.21,SSW,195,4.2,5.2,28,0.00,,,0.00,654.27,VWS V14.01,2013-09-06 16:06:00,
2013-09-06 12:07:00,69.5,34.3,30.21,South,179,2.5,2.5,27,0.00,,,0.00,651.10,VWS V14.01,2013-09-06 16:07:00,
2013-09-06 12:08:00,69.5,34.3,30.21,South,179,2.5,2.5,27,0.00,,,0.00,651.10,VWS V14.01,2013-09-06 16:08:00,
2013-09-06 12:12:00,69.3,35.4,30.20,SW,218,8.3,8.3,29,0.00,,,0.00,655.43,VWS V14.01,2013-09-06 16:12:00,
2013-09-06 12:13:00,68.3,32.3,30.20,SW,225,5.4,7.3,26,0.00,,,0.00,664.04,VWS V14.01,2013-09-06 16:13:00,
2013-09-06 12:14:00,67.1,31.0,30.21,SSW,199,6.9,6.9,26,0.00,,,0.00,667.46,VWS V14.01,2013-09-06 16:14:00,
2013-09-06 12:16:00,70.5,35.7,30.21,South,172,3.4,5.1,28,0.00,,,0.00,669.54,VWS V14.01,2013-09-06 16:16:00,
2013-09-06 12:19:00,71.1,35.0,30.21,SE,125,2.8,4.2,27,0.00,,,0.00,675.40,VWS V14.01,2013-09-06 16:19:00,
2013-09-06 12:20:00,68.8,31.1,30.20,ESE,120,3.5,3.5,24,0.00,,,0.00,675.28,VWS V14.01,2013-09-06 16:20:00,
2013-09-06 12:21:00,68.4,30.5,30.20,South,177,8.5,8.5,24,0.00,,,0.00,678.69,VWS V14.01,2013-09-06 16:21:00,
2013-09-06 12:22:00,67.7,30.8,30.20,South,190,5.6,8.5,25,0.00,,,0.00,682.60,VWS V14.01,2013-09-06 16:22:00,
2013-09-06 12:23:00,67.8,31.8,30.20,SSW,198,8.5,8.5,26,0.00,,,0.00,681.14,VWS V14.01,2013-09-06 16:23:00,
2013-09-06 12:24:00,68.9,33.1,30.20,SSW,208,5.7,8.5,26,0.00,,,0.00,682.85,VWS V14.01,2013-09-06 16:24:00,
2013-09-06 12:25:00,69.2,33.0,30.20,South,186,7.3,7.3,26,0.00,,,0.00,688.95,VWS V14.01,2013-09-06 16:25:00,
2013-09-06 12:27:00,69.5,33.2,30.22,SSW,213,5.7,6.1,26,0.00,,,0.00,697.92,VWS V14.01,2013-09-06 16:27:00,
2013-09-06 12:28:00,71.9,34.8,30.20,SSE,166,7.1,7.1,26,0.00,,,0.00,701.04,VWS V14.01,2013-09-06 16:28:00,
2013-09-06 12:29:00,69.4,30.8,30.20,SSE,167,6.3,6.3,24,0.00,,,0.00,688.77,VWS V14.01,2013-09-06 16:29:00,
2013-09-06 12:30:00,71.0,33.4,30.20,South,178,0.0,6.3,25,0.00,,,0.00,627.41,VWS V14.01,2013-09-06 16:30:00,
2013-09-06 12:32:00,70.1,32.3,30.20,South,180,2.2,3.9,25,0.00,,,0.00,573.69,VWS V14.01,2013-09-06 16:32:00,
2013-09-06 12:34:00,70.9,33.4,30.20,SW,229,3.4,4.7,25,0.00,,,0.00,688.71,VWS V14.01,2013-09-06 16:34:00,
2013-09-06 12:35:00,70.9,33.4,30.20,SW,229,3.4,4.7,25,0.00,,,0.00,688.71,VWS V14.01,2013-09-06 16:35:00,
2013-09-06 12:37:00,68.4,29.3,30.19,SSW,192,6.4,6.4,23,0.00,,,0.00,107.02,VWS V14.01,2013-09-06 16:37:00,
2013-09-06 12:38:00,70.6,34.5,30.20,SSW,204,6.9,7.1,26,0.00,,,0.00,104.82,VWS V14.01,2013-09-06 16:38:00,
2013-09-06 12:40:00,69.8,31.8,30.20,SW,231,6.8,8.1,24,0.00,,,0.00,91.39,VWS V14.01,2013-09-06 16:40:00,
2013-09-06 12:41:00,70.3,31.1,30.20,SW,232,5.4,6.8,23,0.00,,,0.00,97.50,VWS V14.01,2013-09-06 16:41:00,
2013-09-06 12:42:00,69.3,29.0,30.20,WSW,246,4.2,4.2,22,0.00,,,0.00,96.58,VWS V14.01,2013-09-06 16:42:00,
2013-09-06 12:43:00,70.3,30.6,30.19,SW,234,4.5,4.5,23,0.00,,,0.00,96.15,VWS V14.01,2013-09-06 16:43:00,
2013-09-06 12:44:00,68.9,30.7,30.20,WSW,251,3.5,4.5,24,0.00,,,0.00,97.01,VWS V14.01,2013-09-06 16:44:00,
2013-09-06 12:46:00,70.8,34.1,30.19,WSW,245,2.7,6.8,26,0.00,,,0.00,230.28,VWS V14.01,2013-09-06 16:46:00,
2013-09-06 12:47:00,71.0,35.3,30.19,SSW,205,6.1,6.1,27,0.00,,,0.00,395.42,VWS V14.01,2013-09-06 16:47:00,
2013-09-06 12:49:00,71.1,34.7,30.19,WSW,238,6.1,6.3,26,0.00,,,0.00,659.46,VWS V14.01,2013-09-06 16:49:00,
2013-09-06 12:50:00,70.2,32.6,30.19,SW,227,7.3,7.3,25,0.00,,,0.00,720.21,VWS V14.01,2013-09-06 16:50:00,
2013-09-06 12:52:00,69.9,30.3,30.20,WSW,242,2.3,4.7,23,0.00,,,0.00,693.35,VWS V14.01,2013-09-06 16:52:00,
2013-09-06 12:53:00,69.2,30.5,30.19,West,263,4.0,5.1,24,0.00,,,0.00,678.69,VWS V14.01,2013-09-06 16:53:00,
2013-09-06 12:54:00,72.7,34.7,30.20,SSE,149,4.0,4.0,25,0.00,,,0.00,663.13,VWS V14.01,2013-09-06 16:54:00,
2013-09-06 12:55:00,73.2,33.9,30.19,East,89,1.3,4.0,24,0.00,,,0.00,666.48,VWS V14.01,2013-09-06 16:55:00,
2013-09-06 12:59:00,69.2,28.5,30.19,SE,134,3.9,3.9,22,0.00,,,0.00,612.15,VWS V14.01,2013-09-06 16:59:00,
2013-09-06 13:00:00,71.0,29.4,30.19,SSE,151,3.2,3.2,21,0.00,,,0.00,606.41,VWS V14.01,2013-09-06 17:00:00,
2013-09-06 13:01:00,72.3,31.2,30.19,East,91,1.3,3.2,22,0.00,,,0.00,615.20,VWS V14.01,2013-09-06 17:01:00,
2013-09-06 13:02:00,72.5,31.8,30.19,SE,129,1.3,3.2,22,0.00,,,0.00,595.06,VWS V14.01,2013-09-06 17:02:00,
2013-09-06 13:04:00,69.7,30.1,30.18,SSW,201,6.4,6.4,23,0.00,,,0.00,624.66,VWS V14.01,2013-09-06 17:04:00,
2013-09-06 13:05:00,70.4,31.7,30.19,SSW,200,4.7,6.9,24,0.00,,,0.00,627.11,VWS V14.01,2013-09-06 17:05:00,
2013-09-06 13:06:00,70.4,33.0,30.19,SW,216,5.7,8.5,25,0.00,,,0.00,571.25,VWS V14.01,2013-09-06 17:06:00,
2013-09-06 13:07:00,69.7,30.1,30.18,South,182,7.5,8.5,23,0.00,,,0.00,610.32,VWS V14.01,2013-09-06 17:07:00,
2013-09-06 13:10:00,69.8,30.0,30.18,SSW,198,5.9,8.5,23,0.00,,,0.00,696.03,VWS V14.01,2013-09-06 17:10:00,
2013-09-06 13:12:00,71.1,31.3,30.18,SW,232,4.4,8.5,23,0.00,,,0.00,688.46,VWS V14.01,2013-09-06 17:12:00,
2013-09-06 13:13:00,71.0,32.1,30.18,WSW,253,5.2,8.5,24,0.00,,,0.00,693.96,VWS V14.01,2013-09-06 17:13:00,
2013-09-06 13:15:00,71.3,30.4,30.18,WSW,253,2.3,8.5,22,0.00,,,0.00,711.29,VWS V14.01,2013-09-06 17:15:00,
2013-09-06 13:18:00,71.2,30.1,30.18,South,180,7.3,8.5,22,0.00,,,0.00,710.20,VWS V14.01,2013-09-06 17:18:00,
2013-09-06 13:19:00,71.2,30.7,30.17,SSW,202,5.4,8.5,22,0.00,,,0.00,688.46,VWS V14.01,2013-09-06 17:19:00,
2013-09-06 13:20:00,71.5,29.9,30.18,West,279,0.0,8.5,21,0.00,,,0.00,650.31,VWS V14.01,2013-09-06 17:20:00,
2013-09-06 13:21:00,71.5,29.9,30.18,West,279,0.0,8.5,21,0.00,,,0.00,650.31,VWS V14.01,2013-09-06 17:21:00,
2013-09-06 13:24:00,72.2,35.1,30.18,SSW,202,3.4,8.5,26,0.00,,,0.00,695.54,VWS V14.01,2013-09-06 17:24:00,
2013-09-06 13:26:00,70.7,26.5,30.18,SSW,211,6.8,9.3,19,0.00,,,0.00,722.41,VWS V14.01,2013-09-06 17:26:00,
2013-09-06 13:27:00,71.3,31.0,30.18,WSW,256,5.4,9.3,22,0.00,,,0.00,711.17,VWS V14.01,2013-09-06 17:27:00,
2013-09-06 13:30:00,73.0,31.0,30.19,South,175,3.2,9.3,21,0.00,,,0.00,710.44,VWS V14.01,2013-09-06 17:30:00,
2013-09-06 13:32:00,72.3,25.0,30.17,SW,235,5.6,9.3,17,0.00,,,0.00,678.14,VWS V14.01,2013-09-06 17:32:00,
2013-09-06 13:33:00,72.1,27.5,30.16,SW,228,6.3,9.3,19,0.00,,,0.00,685.53,VWS V14.01,2013-09-06 17:33:00,
2013-09-06 13:35:00,74.2,27.9,30.16,SW,218,0.0,9.3,18,0.00,,,0.00,673.81,VWS V14.01,2013-09-06 17:35:00,
2013-09-06 13:36:00,72.8,28.6,30.17,WSW,238,3.7,9.3,19,0.00,,,0.00,699.70,VWS V14.01,2013-09-06 17:36:00,
2013-09-06 13:37:00,73.4,29.6,30.17,WSW,248,5.2,9.3,20,0.00,,,0.00,636.69,VWS V14.01,2013-09-06 17:37:00,
2013-09-06 13:38:00,72.3,29.5,30.17,SW,221,4.4,9.3,20,0.00,,,0.00,680.89,VWS V14.01,2013-09-06 17:38:00,
2013-09-06 13:39:00,72.3,29.5,30.17,SW,221,4.4,9.3,20,0.00,,,0.00,680.89,VWS V14.01,2013-09-06 17:39:00,
2013-09-06 13:42:00,74.6,27.2,30.17,South,180,1.8,9.3,17,0.00,,,0.00,765.14,VWS V14.01,2013-09-06 17:42:00,
2013-09-06 13:43:00,73.6,24.6,30.17,South,187,1.6,9.3,16,0.00,,,0.00,709.95,VWS V14.01,2013-09-06 17:43:00,
2013-09-06 13:44:00,74.2,26.7,30.16,South,183,2.8,9.3,17,0.00,,,0.00,684.74,VWS V14.01,2013-09-06 17:44:00,
2013-09-06 13:45:00,74.6,28.6,30.16,SSE,161,4.4,9.3,18,0.00,,,0.00,659.40,VWS V14.01,2013-09-06 17:45:00,
2013-09-06 13:46:00,73.5,25.5,30.17,SSE,148,6.1,9.3,17,0.00,,,0.00,624.05,VWS V14.01,2013-09-06 17:46:00,
2013-09-06 13:48:00,71.4,23.5,30.16,ESE,109,4.9,9.3,16,0.00,,,0.00,683.15,VWS V14.01,2013-09-06 17:48:00,
2013-09-06 13:49:00,71.8,24.2,30.16,East,95,4.7,9.3,17,0.00,,,0.00,687.97,VWS V14.01,2013-09-06 17:49:00,
2013-09-06 13:50:00,73.7,25.3,30.16,ESE,112,2.0,9.3,16,0.00,,,0.00,659.16,VWS V14.01,2013-09-06 17:50:00,
2013-09-06 13:51:00,73.7,25.3,30.16,ESE,112,2.0,9.3,16,0.00,,,0.00,659.16,VWS V14.01,2013-09-06 17:51:00,
2013-09-06 13:54:00,72.9,30.0,30.16,South,187,3.9,9.3,20,0.00,,,0.00,627.53,VWS V14.01,2013-09-06 17:54:00,
2013-09-06 13:55:00,73.5,31.5,30.16,SSW,195,4.5,9.3,21,0.00,,,0.00,603.60,VWS V14.01,2013-09-06 17:55:00,
2013-09-06 13:57:00,72.6,26.9,30.18,SSW,206,3.7,9.3,18,0.00,,,0.00,594.81,VWS V14.01,2013-09-06 17:57:00,
2013-09-06 13:59:00,74.2,27.2,30.16,SW,221,2.3,9.3,17,0.00,,,0.00,532.78,VWS V14.01,2013-09-06 17:59:00,
2013-09-06 14:00:00,72.6,27.0,30.16,WSW,251,5.4,9.3,18,0.00,,,0.00,647.68,VWS V14.01,2013-09-06 18:00:00,
2013-09-06 14:02:00,72.6,25.6,30.16,SSW,196,7.8,9.0,17,0.00,,,0.00,699.45,VWS V14.01,2013-09-06 18:02:00,
2013-09-06 14:04:00,73.4,27.1,30.16,SSW,212,4.2,4.9,18,0.00,,,0.00,578.14,VWS V14.01,2013-09-06 18:04:00,
2013-09-06 14:05:00,73.5,28.4,30.16,WSW,238,4.4,4.4,19,0.00,,,0.00,572.10,VWS V14.01,2013-09-06 18:05:00,
2013-09-06 14:06:00,72.2,22.7,30.15,South,185,4.0,4.4,15,0.00,,,0.00,659.16,VWS V14.01,2013-09-06 18:06:00,
2013-09-06 14:07:00,75.2,26.9,30.15,South,190,2.3,4.0,17,0.00,,,0.00,641.51,VWS V14.01,2013-09-06 18:07:00,
2013-09-06 14:09:00,73.8,25.6,30.16,SSW,199,0.0,3.2,17,0.00,,,0.00,620.09,VWS V14.01,2013-09-06 18:09:00,
2013-09-06 14:11:00,75.7,25.2,30.16,NE,38,0.0,2.5,15,0.00,,,0.00,690.90,VWS V14.01,2013-09-06 18:11:00,
2013-09-06 14:12:00,75.2,29.5,30.16,SSE,165,3.7,3.7,19,0.00,,,0.00,646.76,VWS V14.01,2013-09-06 18:12:00,
2013-09-06 14:13:00,74.3,26.6,30.17,SW,223,3.0,4.5,17,0.00,,,0.00,690.90,VWS V14.01,2013-09-06 18:13:00,
2013-09-06 14:16:00,73.6,27.8,30.16,SSW,211,5.1,5.1,18,0.00,,,0.00,744.75,VWS V14.01,2013-09-06 18:16:00,
2013-09-06 14:17:00,72.1,23.2,30.16,SSW,204,7.5,7.5,16,0.00,,,0.00,761.72,VWS V14.01,2013-09-06 18:17:00,
2013-09-06 14:18:00,75.5,29.0,30.15,South,173,2.8,5.1,18,0.00,,,0.00,769.54,VWS V14.01,2013-09-06 18:18:00,
2013-09-06 14:19:00,75.9,27.8,30.15,South,176,3.0,3.0,17,0.00,,,0.00,767.22,VWS V14.01,2013-09-06 18:19:00,
2013-09-06 14:22:00,74.9,24.7,30.15,South,170,5.6,5.6,15,0.00,,,0.00,729.73,VWS V14.01,2013-09-06 18:22:00,
2013-09-06 14:23:00,74.6,25.9,30.15,East,97,4.0,5.6,16,0.00,,,0.00,688.46,VWS V14.01,2013-09-06 18:23:00,
2013-09-06 14:24:00,71.8,21.6,30.14,ENE,75,6.4,6.4,15,0.00,,,0.00,668.62,VWS V14.01,2013-09-06 18:24:00,
2013-09-06 14:28:00,74.6,26.9,30.15,SSW,195,5.7,6.3,17,0.00,,,0.00,627.78,VWS V14.01,2013-09-06 18:28:00,
2013-09-06 14:29:00,74.0,24.0,30.14,SSE,152,6.3,7.5,15,0.00,,,0.00,654.76,VWS V14.01,2013-09-06 18:29:00,
2013-09-06 14:30:00,73.1,23.2,30.15,SSW,212,5.6,6.3,15,0.00,,,0.00,625.89,VWS V14.01,2013-09-06 18:30:00,
2013-09-06 14:31:00,75.4,25.5,30.15,SSE,161,2.0,5.6,16,0.00,,,0.00,646.95,VWS V14.01,2013-09-06 18:31:00,
2013-09-06 14:32:00,75.4,25.5,30.15,SSE,161,2.0,5.6,16,0.00,,,0.00,646.95,VWS V14.01,2013-09-06 18:32:00,
2013-09-06 14:33:00,75.2,29.4,30.14,SW,215,3.7,4.4,18,0.00,,,0.00,642.06,VWS V14.01,2013-09-06 18:33:00,
2013-09-06 14:34:00,73.9,26.4,30.15,West,263,1.6,3.7,17,0.00,,,0.00,676.50,VWS V14.01,2013-09-06 18:34:00,
2013-09-06 14:35:00,74.5,22.7,30.14,SSW,204,3.2,3.2,14,0.00,,,0.00,663.80,VWS V14.01,2013-09-06 18:35:00,
2013-09-06 14:37:00,73.4,24.5,30.14,SSW,196,7.3,7.6,16,0.00,,,0.00,692.55,VWS V14.01,2013-09-06 18:37:00,
2013-09-06 14:39:00,74.2,24.2,30.14,SSE,167,3.9,6.6,15,0.00,,,0.00,698.96,VWS V14.01,2013-09-06 18:39:00,
2013-09-06 14:40:00,75.9,26.3,30.14,SSE,151,2.5,3.9,16,0.00,,,0.00,722.65,VWS V14.01,2013-09-06 18:40:00,
2013-09-06 14:42:00,76.5,25.1,30.14,South,174,4.5,4.5,15,0.00,,,0.00,693.65,VWS V14.01,2013-09-06 18:42:00,
2013-09-06 14:43:00,74.6,22.8,30.14,SSE,153,5.9,5.9,14,0.00,,,0.00,695.42,VWS V14.01,2013-09-06 18:43:00,
2013-09-06 14:45:00,74.4,22.0,30.14,SSE,154,4.7,5.1,14,0.00,,,0.00,692.74,VWS V14.01,2013-09-06 18:45:00,
2013-09-06 14:47:00,75.7,23.3,30.13,SE,142,1.0,4.2,14,0.00,,,0.00,690.60,VWS V14.01,2013-09-06 18:47:00,
2013-09-06 14:48:00,76.1,25.0,30.14,South,175,6.3,6.3,15,0.00,,,0.00,705.25,VWS V14.01,2013-09-06 18:48:00,
2013-09-06 14:50:00,75.2,24.6,30.13,SSW,209,5.4,5.4,15,0.00,,,0.00,683.82,VWS V14.01,2013-09-06 18:50:00,
2013-09-06 14:51:00,74.1,23.0,30.13,SSW,200,4.7,5.4,15,0.00,,,0.00,625.70,VWS V14.01,2013-09-06 18:51:00,
2013-09-06 14:52:00,74.5,22.0,30.13,SW,233,6.6,6.6,14,0.00,,,0.00,677.29,VWS V14.01,2013-09-06 18:52:00,
2013-09-06 14:53:00,73.8,22.1,30.13,West,265,1.1,6.6,14,0.00,,,0.00,639.62,VWS V14.01,2013-09-06 18:53:00,
2013-09-06 14:55:00,74.1,25.4,30.13,WSW,254,3.2,3.2,16,0.00,,,0.00,618.19,VWS V14.01,2013-09-06 18:55:00,
2013-09-06 14:56:00,75.5,26.2,30.13,SW,224,6.9,6.9,16,0.00,,,0.00,664.53,VWS V14.01,2013-09-06 18:56:00,
2013-09-06 14:57:00,75.4,20.6,30.13,SW,226,2.8,7.3,13,0.00,,,0.00,667.09,VWS V14.01,2013-09-06 18:57:00,
2013-09-06 14:58:00,76.1,22.9,30.13,SSW,206,0.0,0.0,14,0.00,,,0.00,667.70,VWS V14.01,2013-09-06 18:58:00,
2013-09-06 15:00:00,74.4,23.4,30.13,WNW,302,4.2,4.2,15,0.00,,,0.00,698.60,VWS V14.01,2013-09-06 19:00:00,
2013-09-06 15:03:00,75.5,26.5,30.13,NW,320,2.3,3.9,16,0.00,,,0.00,651.83,VWS V14.01,2013-09-06 19:03:00,
2013-09-06 15:04:00,74.3,19.3,30.13,NNW,328,4.5,4.5,12,0.00,,,0.00,666.48,VWS V14.01,2013-09-06 19:04:00,
2013-09-06 15:05:00,74.6,24.3,30.13,NW,316,3.9,4.5,15,0.00,,,0.00,611.54,VWS V14.01,2013-09-06 19:05:00,
2013-09-06 15:06:00,75.8,27.6,30.12,West,274,0.0,3.9,17,0.00,,,0.00,589.56,VWS V14.01,2013-09-06 19:06:00,
2013-09-06 15:07:00,75.8,27.6,30.12,West,274,0.0,3.9,17,0.00,,,0.00,589.56,VWS V14.01,2013-09-06 19:07:00,
2013-09-06 15:08:00,75.4,24.8,30.13,South,189,4.2,4.2,15,0.00,,,0.00,500.43,VWS V14.01,2013-09-06 19:08:00,
2013-09-06 15:09:00,74.8,26.6,30.13,SSW,211,6.4,6.4,17,0.00,,,0.00,501.16,VWS V14.01,2013-09-06 19:09:00,
2013-09-06 15:12:00,74.8,25.5,30.13,SSW,197,4.0,5.9,16,0.00,,,0.00,606.35,VWS V14.01,2013-09-06 19:12:00,
2013-09-06 15:13:00,74.5,22.8,30.15,SSW,202,4.0,4.0,14,0.00,,,0.00,594.93,VWS V14.01,2013-09-06 19:13:00,
2013-09-06 15:14:00,75.3,26.9,30.13,SSW,203,6.3,6.3,17,0.00,,,0.00,615.81,VWS V14.01,2013-09-06 19:14:00,
2013-09-06 15:16:00,75.7,22.9,30.15,South,177,1.1,6.3,14,0.00,,,0.00,612.76,VWS V14.01,2013-09-06 19:16:00,
2013-09-06 15:17:00,76.0,25.4,30.12,WSW,246,1.6,1.6,15,0.00,,,0.00,642.06,VWS V14.01,2013-09-06 19:17:00,
2013-09-06 15:18:00,76.7,24.2,30.12,West,270,0.0,2.3,14,0.00,,,0.00,594.14,VWS V14.01,2013-09-06 19:18:00,
2013-09-06 15:19:00,77.4,22.4,30.14,West,270,0.0,0.0,13,0.00,,,0.00,615.45,VWS V14.01,2013-09-06 19:19:00,
2013-09-06 15:20:00,75.1,24.5,30.12,West,269,1.3,1.3,15,0.00,,,0.00,628.88,VWS V14.01,2013-09-06 19:20:00,
2013-09-06 15:22:00,76.7,23.1,30.12,WSW,246,2.2,2.2,14,0.00,,,0.00,680.16,VWS V14.01,2013-09-06 19:22:00,
2013-09-06 15:24:00,77.1,28.9,30.12,SW,230,4.4,4.4,17,0.00,,,0.00,663.74,VWS V14.01,2013-09-06 19:24:00,
2013-09-06 15:25:00,76.3,27.6,30.12,SSW,198,7.8,7.8,16,0.00,,,0.00,622.47,VWS V14.01,2013-09-06 19:25:00,
2013-09-06 15:28:00,75.5,22.6,30.12,South,179,7.5,7.5,14,0.00,,,0.00,495.54,VWS V14.01,2013-09-06 19:28:00,
2013-09-06 15:29:00,75.2,24.0,30.12,SSW,192,6.6,8.3,15,0.00,,,0.00,583.70,VWS V14.01,2013-09-06 19:29:00,
2013-09-06 15:31:00,74.3,23.7,30.12,SSW,202,9.2,9.2,15,0.00,,,0.00,550.31,VWS V14.01,2013-09-06 19:31:00,
2013-09-06 15:32:00,75.3,27.8,30.12,SSW,195,3.2,6.6,17,0.00,,,0.00,635.41,VWS V14.01,2013-09-06 19:32:00,
2013-09-06 15:33:00,76.6,23.1,30.11,SSE,158,4.2,4.9,14,0.00,,,0.00,626.68,VWS V14.01,2013-09-06 19:33:00,
2013-09-06 15:34:00,77.4,24.4,30.12,SE,137,4.4,4.4,14,0.00,,,0.00,639.62,VWS V14.01,2013-09-06 19:34:00,
2013-09-06 15:35:00,75.5,22.5,30.11,SE,141,5.4,5.4,14,0.00,,,0.00,555.86,VWS V14.01,2013-09-06 19:35:00,
2013-09-06 15:36:00,75.3,24.2,30.11,SSW,204,6.6,6.6,15,0.00,,,0.00,547.99,VWS V14.01,2013-09-06 19:36:00,
2013-09-06 15:37:00,75.3,27.4,30.12,SW,219,7.5,7.5,17,0.00,,,0.00,554.76,VWS V14.01,2013-09-06 19:37:00,
2013-09-06 15:38:00,74.2,22.0,30.12,SSW,204,7.3,7.5,14,0.00,,,0.00,576.13,VWS V14.01,2013-09-06 19:38:00,
2013-09-06 15:40:00,76.4,22.1,30.11,SW,232,2.8,5.1,13,0.00,,,0.00,537.67,VWS V14.01,2013-09-06 19:40:00,
2013-09-06 15:42:00,76.3,23.8,30.12,SW,214,2.3,5.2,14,0.00,,,0.00,544.99,VWS V14.01,2013-09-06 19:42:00,
2013-09-06 15:43:00,76.3,23.1,30.12,SSE,151,0.0,4.0,14,0.00,,,0.00,603.72,VWS V14.01,2013-09-06 19:43:00,
2013-09-06 15:45:00,78.1,27.1,30.11,SE,128,0.0,1.6,15,0.00,,,0.00,538.77,VWS V14.01,2013-09-06 19:45:00,
2013-09-06 15:46:00,77.9,24.2,30.11,SSE,164,7.1,7.1,14,0.00,,,0.00,550.06,VWS V14.01,2013-09-06 19:46:00,
2013-09-06 15:49:00,75.7,25.1,30.11,SSW,194,6.6,6.6,15,0.00,,,0.00,548.05,VWS V14.01,2013-09-06 19:49:00,
2013-09-06 15:50:00,74.4,23.2,30.11,SSW,200,5.6,6.6,15,0.00,,,0.00,435.23,VWS V14.01,2013-09-06 19:50:00,
2013-09-06 15:51:00,76.2,29.5,30.11,SSW,207,2.5,5.6,18,0.00,,,0.00,431.32,VWS V14.01,2013-09-06 19:51:00,
2013-09-06 15:52:00,76.5,27.0,30.11,SSW,192,4.2,4.2,16,0.00,,,0.00,461.60,VWS V14.01,2013-09-06 19:52:00,
2013-09-06 15:54:00,75.6,24.1,30.11,SSE,159,4.7,4.7,15,0.00,,,0.00,529.73,VWS V14.01,2013-09-06 19:54:00,
2013-09-06 15:56:00,75.9,23.9,30.11,SSE,167,5.7,5.7,14,0.00,,,0.00,542.19,VWS V14.01,2013-09-06 19:56:00,
2013-09-06 15:57:00,76.6,24.8,30.11,South,182,5.4,5.7,15,0.00,,,0.00,544.87,VWS V14.01,2013-09-06 19:57:00,
2013-09-06 15:58:00,76.2,25.0,30.11,SSE,153,5.9,5.9,15,0.00,,,0.00,546.58,VWS V14.01,2013-09-06 19:58:00,
2013-09-06 16:01:00,75.5,23.5,30.11,ENE,60,2.3,2.8,14,0.00,,,0.00,439.38,VWS V14.01,2013-09-06 20:01:00,
2013-09-06 16:02:00,77.2,23.6,30.11,SSE,156,1.6,2.3,14,0.00,,,0.00,447.31,VWS V14.01,2013-09-06 20:02:00,
2013-09-06 16:04:00,76.0,26.7,30.11,South,190,6.1,6.1,16,0.00,,,0.00,476.01,VWS V14.01,2013-09-06 20:04:00,
2013-09-06 16:07:00,76.1,22.3,30.11,ENE,65,2.2,2.2,13,0.00,,,0.00,483.33,VWS V14.01,2013-09-06 20:07:00,
2013-09-06 16:09:00,76.7,28.6,30.11,WSW,237,4.7,4.9,17,0.00,,,0.00,546.83,VWS V14.01,2013-09-06 20:09:00,
2013-09-06 16:10:00,77.2,28.3,30.10,SW,228,3.2,4.7,16,0.00,,,0.00,547.99,VWS V14.01,2013-09-06 20:10:00,
2013-09-06 16:12:00,76.2,25.9,30.12,SW,236,4.7,6.1,15,0.00,,,0.00,552.56,VWS V14.01,2013-09-06 20:12:00,
2013-09-06 16:13:00,77.1,30.2,30.11,SSW,200,5.2,5.2,18,0.00,,,0.00,561.60,VWS V14.01,2013-09-06 20:13:00,
2013-09-06 16:14:00,75.5,24.3,30.11,South,187,5.1,5.2,15,0.00,,,0.00,566.85,VWS V14.01,2013-09-06 20:14:00,
2013-09-06 16:16:00,76.9,26.6,30.11,SSW,197,7.6,7.6,16,0.00,,,0.00,576.44,VWS V14.01,2013-09-06 20:16:00,
2013-09-06 16:19:00,77.2,26.5,30.11,SE,133,4.5,6.8,15,0.00,,,0.00,551.89,VWS V14.01,2013-09-06 20:19:00,
2013-09-06 16:20:00,77.3,26.2,30.11,SSW,192,4.4,5.6,15,0.00,,,0.00,546.58,VWS V14.01,2013-09-06 20:20:00,
2013-09-06 16:21:00,77.8,26.5,30.10,SE,135,4.4,4.4,15,0.00,,,0.00,515.81,VWS V14.01,2013-09-06 20:21:00,
2013-09-06 16:24:00,76.7,25.6,30.11,ESE,108,4.7,4.7,15,0.00,,,0.00,527.29,VWS V14.01,2013-09-06 20:24:00,
2013-09-06 16:25:00,76.9,23.9,30.10,SSE,156,5.9,5.9,14,0.00,,,0.00,532.48,VWS V14.01,2013-09-06 20:25:00,
2013-09-06 16:26:00,76.8,23.5,30.10,South,189,3.2,3.9,14,0.00,,,0.00,522.10,VWS V14.01,2013-09-06 20:26:00,
2013-09-06 16:27:00,78.0,24.9,30.10,SSE,153,2.5,3.7,14,0.00,,,0.00,452.20,VWS V14.01,2013-09-06 20:27:00,
2013-09-06 16:29:00,76.2,25.2,30.11,South,181,7.3,7.3,15,0.00,,,0.00,436.94,VWS V14.01,2013-09-06 20:29:00,
2013-09-06 16:30:00,77.1,25.9,30.11,SSE,156,6.9,7.3,15,0.00,,,0.00,468.38,VWS V14.01,2013-09-06 20:30:00,
2013-09-06 16:32:00,77.1,26.1,30.10,South,178,5.6,5.6,15,0.00,,,0.00,485.78,VWS V14.01,2013-09-06 20:32:00,
2013-09-06 16:33:00,76.9,25.7,30.10,SSW,194,7.1,7.1,15,0.00,,,0.00,473.81,VWS V14.01,2013-09-06 20:33:00,
2013-09-06 16:35:00,76.0,24.9,30.11,South,187,7.8,7.8,15,0.00,,,0.00,505.07,VWS V14.01,2013-09-06 20:35:00,
2013-09-06 16:36:00,76.1,26.3,30.11,SSW,211,8.1,8.7,16,0.00,,,0.00,520.88,VWS V14.01,2013-09-06 20:36:00,
2013-09-06 16:37:00,75.9,28.0,30.10,SW,217,5.7,8.1,17,0.00,,,0.00,459.40,VWS V14.01,2013-09-06 20:37:00,
2013-09-06 16:40:00,75.4,26.0,30.10,SSW,199,8.0,8.1,16,0.00,,,0.00,506.29,VWS V14.01,2013-09-06 20:40:00,
2013-09-06 16:43:00,77.2,28.6,30.10,SSW,201,2.5,5.1,17,0.00,,,0.00,508.00,VWS V14.01,2013-09-06 20:43:00,
2013-09-06 16:44:00,76.1,23.4,30.10,SSW,195,4.9,4.9,14,0.00,,,0.00,504.82,VWS V14.01,2013-09-06 20:44:00,
2013-09-06 16:48:00,76.6,24.6,30.10,South,178,3.0,6.8,14,0.00,,,0.00,439.62,VWS V14.01,2013-09-06 20:48:00,
2013-09-06 16:49:00,76.3,26.3,30.09,South,180,5.2,5.2,16,0.00,,,0.00,441.51,VWS V14.01,2013-09-06 20:49:00,
2013-09-06 16:50:00,76.3,23.8,30.09,SSW,192,5.1,6.3,14,0.00,,,0.00,414.96,VWS V14.01,2013-09-06 20:50:00,
2013-09-06 16:51:00,77.3,26.6,30.09,South,186,4.7,5.1,15,0.00,,,0.00,439.07,VWS V14.01,2013-09-06 20:51:00,
2013-09-06 16:53:00,77.6,26.9,30.09,SSE,159,4.7,7.1,15,0.00,,,0.00,459.16,VWS V14.01,2013-09-06 20:53:00,
2013-09-06 16:54:00,76.9,25.8,30.09,SSW,202,4.7,4.7,15,0.00,,,0.00,468.68,VWS V14.01,2013-09-06 20:54:00,
2013-09-06 16:55:00,76.9,25.8,30.09,SSW,202,4.7,4.7,15,0.00,,,0.00,468.68,VWS V14.01,2013-09-06 20:55:00,
2013-09-06 16:59:00,77.4,23.6,30.10,SW,217,4.5,6.3,13,0.00,,,0.00,463.31,VWS V14.01,2013-09-06 20:59:00,
2013-09-06 17:00:00,78.3,30.7,30.10,SW,223,3.7,4.5,17,0.00,,,0.00,467.16,VWS V14.01,2013-09-06 21:00:00,
2013-09-06 17:01:00,76.2,24.4,30.09,SSW,204,6.4,6.4,14,0.00,,,0.00,464.04,VWS V14.01,2013-09-06 21:01:00,
2013-09-06 17:03:00,78.0,24.7,30.09,SW,221,2.3,2.3,14,0.00,,,0.00,415.57,VWS V14.01,2013-09-06 21:03:00,
2013-09-06 17:05:00,77.7,26.1,30.09,South,187,5.4,5.4,15,0.00,,,0.00,445.73,VWS V14.01,2013-09-06 21:05:00,
2013-09-06 17:06:00,77.1,29.0,30.09,SSW,205,5.1,5.4,17,0.00,,,0.00,355.62,VWS V14.01,2013-09-06 21:06:00,
2013-09-06 17:09:00,76.8,24.2,30.10,SSW,207,3.2,3.2,14,0.00,,,0.00,443.53,VWS V14.01,2013-09-06 21:09:00,
2013-09-06 17:10:00,77.5,25.9,30.09,SSW,206,2.5,3.7,15,0.00,,,0.00,436.87,VWS V14.01,2013-09-06 21:10:00,
2013-09-06 17:11:00,78.7,27.9,30.10,South,171,4.9,4.9,15,0.00,,,0.00,424.18,VWS V14.01,2013-09-06 21:11:00,
2013-09-06 17:12:00,78.6,26.6,30.10,SSE,167,3.4,4.9,15,0.00,,,0.00,410.07,VWS V14.01,2013-09-06 21:12:00,
2013-09-06 17:13:00,77.4,25.0,30.09,SSW,199,5.7,5.7,14,0.00,,,0.00,426.92,VWS V14.01,2013-09-06 21:13:00,
2013-09-06 17:14:00,76.8,24.8,30.09,South,189,6.3,6.3,14,0.00,,,0.00,417.40,VWS V14.01,2013-09-06 21:14:00,
2013-09-06 17:15:00,77.1,23.1,30.09,SW,220,4.5,5.6,13,0.00,,,0.00,413.80,VWS V14.01,2013-09-06 21:15:00,
2013-09-06 17:16:00,77.1,25.5,30.09,SW,225,5.4,5.6,15,0.00,,,0.00,405.19,VWS V14.01,2013-09-06 21:16:00,
2013-09-06 17:18:00,76.0,27.5,30.09,WSW,254,3.9,6.4,17,0.00,,,0.00,407.63,VWS V14.01,2013-09-06 21:18:00,
2013-09-06 17:19:00,77.5,31.6,30.09,WSW,238,1.1,3.9,19,0.00,,,0.00,410.01,VWS V14.01,2013-09-06 21:19:00,
2013-09-06 17:20:00,77.2,31.6,30.10,WSW,243,4.0,4.0,19,0.00,,,0.00,409.34,VWS V14.01,2013-09-06 21:20:00,
2013-09-06 17:21:00,77.9,26.5,30.10,SSW,211,2.8,5.2,15,0.00,,,0.00,388.10,VWS V14.01,2013-09-06 21:21:00,
2013-09-06 17:22:00,77.6,27.2,30.10,SW,218,3.9,3.9,16,0.00,,,0.00,385.29,VWS V14.01,2013-09-06 21:22:00,
2013-09-06 17:24:00,76.9,26.7,30.09,SSW,208,5.6,5.6,16,0.00,,,0.00,402.75,VWS V14.01,2013-09-06 21:24:00,
2013-09-06 17:26:00,77.6,24.3,30.09,SSW,208,3.4,3.5,14,0.00,,,0.00,401.77,VWS V14.01,2013-09-06 21:26:00,
2013-09-06 17:27:00,77.9,26.6,30.09,SSW,207,3.0,3.0,15,0.00,,,0.00,402.38,VWS V14.01,2013-09-06 21:27:00,
2013-09-06 17:28:00,77.0,27.3,30.09,WSW,246,3.0,3.4,16,0.00,,,0.00,402.75,VWS V14.01,2013-09-06 21:28:00,
2013-09-06 17:29:00,77.1,28.9,30.09,WSW,250,0.0,0.0,17,0.00,,,0.00,401.28,VWS V14.01,2013-09-06 21:29:00,
2013-09-06 17:31:00,77.2,30.5,30.09,West,275,2.0,2.3,18,0.00,,,0.00,366.91,VWS V14.01,2013-09-06 21:31:00,
2013-09-06 17:32:00,77.6,28.7,30.08,WSW,237,5.4,5.4,17,0.00,,,0.00,392.98,VWS V14.01,2013-09-06 21:32:00,
2013-09-06 17:33:00,77.6,28.7,30.08,WSW,237,5.4,5.4,17,0.00,,,0.00,392.98,VWS V14.01,2013-09-06 21:33:00,
2013-09-06 17:36:00,77.6,25.6,30.09,SSW,205,2.8,3.4,15,0.00,,,0.00,323.26,VWS V14.01,2013-09-06 21:36:00,
2013-09-06 17:37:00,76.7,29.9,30.09,SSW,209,5.4,5.4,18,0.00,,,0.00,331.62,VWS V14.01,2013-09-06 21:37:00,
2013-09-06 17:39:00,76.4,28.4,30.08,SSW,192,5.6,5.6,17,0.00,,,0.00,334.37,VWS V14.01,2013-09-06 21:39:00,
2013-09-06 17:41:00,76.8,28.7,30.08,SW,220,5.7,5.7,17,0.00,,,0.00,345.06,VWS V14.01,2013-09-06 21:41:00,
2013-09-06 17:44:00,77.8,26.9,30.09,South,181,3.5,3.5,15,0.00,,,0.00,299.02,VWS V14.01,2013-09-06 21:44:00,
2013-09-06 17:45:00,77.7,25.3,30.09,South,183,3.0,3.0,14,0.00,,,0.00,318.19,VWS V14.01,2013-09-06 21:45:00,
2013-09-06 17:47:00,77.8,26.6,30.09,SSE,160,5.9,5.9,15,0.00,,,0.00,333.64,VWS V14.01,2013-09-06 21:47:00,
2013-09-06 17:48:00,77.7,24.8,30.09,SSE,160,1.8,6.9,14,0.00,,,0.00,214.41,VWS V14.01,2013-09-06 21:48:00,
2013-09-06 17:49:00,77.4,27.6,30.09,SSE,152,2.2,2.5,16,0.00,,,0.00,207.39,VWS V14.01,2013-09-06 21:49:00,
2013-09-06 17:50:00,77.4,26.8,30.09,South,169,2.5,2.5,15,0.00,,,0.00,188.83,VWS V14.01,2013-09-06 21:50:00,
2013-09-06 17:51:00,77.7,27.5,30.09,SE,144,2.8,2.8,16,0.00,,,0.00,258.00,VWS V14.01,2013-09-06 21:51:00,
2013-09-06 17:52:00,77.7,26.8,30.08,SSE,158,2.8,2.8,15,0.00,,,0.00,278.21,VWS V14.01,2013-09-06 21:52:00,
2013-09-06 17:54:00,77.4,26.0,30.08,East,99,3.0,3.4,15,0.00,,,0.00,227.53,VWS V14.01,2013-09-06 21:54:00,
2013-09-06 17:55:00,78.2,27.8,30.09,South,173,4.2,4.2,16,0.00,,,0.00,289.93,VWS V14.01,2013-09-06 21:55:00,
2013-09-06 17:56:00,78.4,25.5,30.09,SSE,151,0.0,4.2,14,0.00,,,0.00,294.99,VWS V14.01,2013-09-06 21:56:00,
2013-09-06 17:57:00,78.4,27.6,30.09,SW,231,2.3,2.3,15,0.00,,,0.00,297.74,VWS V14.01,2013-09-06 21:57:00,
2013-09-06 18:01:00,77.8,27.3,30.09,South,180,5.4,5.4,16,0.00,,,0.00,331.44,VWS V14.01,2013-09-06 22:01:00,
2013-09-06 18:02:00,79.0,31.9,30.09,SW,233,2.8,6.1,18,0.00,,,0.00,332.42,VWS V14.01,2013-09-06 22:02:00,
2013-09-06 18:03:00,77.4,28.1,30.09,WSW,245,3.7,6.1,16,0.00,,,0.00,316.97,VWS V14.01,2013-09-06 22:03:00,
2013-09-06 18:06:00,77.3,25.4,30.09,SSW,211,8.0,8.0,15,0.00,,,0.00,275.52,VWS V14.01,2013-09-06 22:06:00,
2013-09-06 18:07:00,76.8,27.4,30.09,SSW,197,5.6,8.0,16,0.00,,,0.00,229.06,VWS V14.01,2013-09-06 22:07:00,
2013-09-06 18:09:00,76.7,28.1,30.09,SSW,204,4.5,8.0,17,0.00,,,0.00,190.54,VWS V14.01,2013-09-06 22:09:00,
2013-09-06 18:12:00,79.1,26.1,30.09,SSW,208,4.2,8.0,14,0.00,,,0.00,270.88,VWS V14.01,2013-09-06 22:12:00,
2013-09-06 18:13:00,78.7,27.5,30.09,SSW,206,2.7,8.0,15,0.00,,,0.00,280.65,VWS V14.01,2013-09-06 22:13:00,
2013-09-06 18:15:00,77.7,27.1,30.09,South,186,4.7,8.0,15,0.00,,,0.00,232.11,VWS V14.01,2013-09-06 22:15:00,
2013-09-06 18:16:00,78.3,26.2,30.09,South,186,2.8,8.0,15,0.00,,,0.00,232.42,VWS V14.01,2013-09-06 22:16:00,
2013-09-06 18:17:00,78.2,28.1,30.09,South,169,3.0,8.0,16,0.00,,,0.00,160.68,VWS V14.01,2013-09-06 22:17:00,
2013-09-06 18:19:00,77.3,26.7,30.09,South,171,3.5,8.0,15,0.00,,,0.00,168.56,VWS V14.01,2013-09-06 22:19:00,
2013-09-06 18:20:00,77.4,27.7,30.09,South,182,4.2,8.0,16,0.00,,,0.00,213.13,VWS V14.01,2013-09-06 22:20:00,
2013-09-06 18:22:00,78.4,27.1,30.09,South,189,3.4,8.0,15,0.00,,,0.00,219.29,VWS V14.01,2013-09-06 22:22:00,
2013-09-06 18:24:00,77.5,28.3,30.09,SSW,197,3.4,8.0,16,0.00,,,0.00,195.18,VWS V14.01,2013-09-06 22:24:00,
2013-09-06 18:26:00,77.3,27.1,30.09,SSW,196,2.5,8.0,16,0.00,,,0.00,208.85,VWS V14.01,2013-09-06 22:26:00,
2013-09-06 18:27:00,76.1,22.5,30.09,SSW,208,5.7,8.0,13,0.00,,,0.00,210.32,VWS V14.01,2013-09-06 22:27:00,
2013-09-06 18:29:00,76.6,29.7,30.09,SSW,207,4.0,8.0,18,0.00,,,0.00,203.24,VWS V14.01,2013-09-06 22:29:00,
2013-09-06 18:30:00,77.1,31.4,30.09,South,178,2.8,8.0,19,0.00,,,0.00,209.10,VWS V14.01,2013-09-06 22:30:00,
2013-09-06 18:31:00,76.6,29.9,30.09,SW,224,4.9,8.0,18,0.00,,,0.00,192.00,VWS V14.01,2013-09-06 22:31:00,
2013-09-06 18:32:00,76.6,30.2,30.10,SSW,211,4.2,8.0,18,0.00,,,0.00,195.91,VWS V14.01,2013-09-06 22:32:00,
2013-09-06 18:34:00,76.8,28.2,30.09,SSW,202,3.5,8.0,17,0.00,,,0.00,193.04,VWS V14.01,2013-09-06 22:34:00,
2013-09-06 18:35:00,77.0,28.3,30.09,South,182,3.4,8.0,17,0.00,,,0.00,190.29,VWS V14.01,2013-09-06 22:35:00,
2013-09-06 18:36:00,76.3,19.1,30.09,SSW,199,3.9,8.0,12,0.00,,,0.00,168.25,VWS V14.01,2013-09-06 22:36:00,
2013-09-06 18:37:00,76.4,27.7,30.09,South,173,4.5,8.0,17,0.00,,,0.00,149.39,VWS V14.01,2013-09-06 22:37:00,
2013-09-06 18:38:00,76.4,28.1,30.10,South,191,2.7,8.0,17,0.00,,,0.00,139.07,VWS V14.01,2013-09-06 22:38:00,
2013-09-06 18:39:00,75.6,26.0,30.09,SSW,203,4.5,8.0,16,0.00,,,0.00,112.15,VWS V14.01,2013-09-06 22:39:00,
2013-09-06 18:41:00,76.3,26.6,30.09,South,173,3.4,8.0,16,0.00,,,0.00,175.89,VWS V14.01,2013-09-06 22:41:00,
2013-09-06 18:43:00,75.9,31.1,30.09,SSW,197,4.4,8.0,19,0.00,,,0.00,164.16,VWS V14.01,2013-09-06 22:43:00,
2013-09-06 18:44:00,76.0,31.8,30.09,South,171,3.5,8.0,20,0.00,,,0.00,153.66,VWS V14.01,2013-09-06 22:44:00,
2013-09-06 18:47:00,75.9,29.5,30.08,South,178,3.0,8.0,18,0.00,,,0.00,157.57,VWS V14.01,2013-09-06 22:47:00,
2013-09-06 18:48:00,76.1,28.4,30.10,South,177,4.4,8.0,17,0.00,,,0.00,151.22,VWS V14.01,2013-09-06 22:48:00,
2013-09-06 18:49:00,76.0,29.9,30.08,South,171,3.4,8.0,18,0.00,,,0.00,151.22,VWS V14.01,2013-09-06 22:49:00,
2013-09-06 18:50:00,75.5,30.0,30.08,SSW,195,3.9,8.0,19,0.00,,,0.00,160.07,VWS V14.01,2013-09-06 22:50:00,
2013-09-06 18:51:00,75.9,30.5,30.08,SSE,166,3.9,8.0,19,0.00,,,0.00,158.30,VWS V14.01,2013-09-06 22:51:00,
2013-09-06 18:55:00,75.9,31.3,30.08,South,178,2.8,8.0,19,0.00,,,0.00,152.63,VWS V14.01,2013-09-06 22:55:00,
2013-09-06 18:56:00,75.6,30.1,30.08,South,183,4.5,8.0,19,0.00,,,0.00,148.47,VWS V14.01,2013-09-06 22:56:00,
2013-09-06 18:57:00,75.6,29.5,30.09,South,176,3.9,8.0,18,0.00,,,0.00,144.81,VWS V14.01,2013-09-06 22:57:00,
2013-09-06 19:00:00,75.7,30.2,30.07,South,175,3.4,8.0,19,0.00,,,0.00,124.97,VWS V14.01,2013-09-06 23:00:00,
2013-09-06 19:01:00,75.4,28.7,30.07,South,184,4.4,4.4,18,0.00,,,0.00,102.14,VWS V14.01,2013-09-06 23:01:00,
2013-09-06 19:03:00,74.9,29.5,30.08,South,189,3.0,4.9,19,0.00,,,0.00,105.07,VWS V14.01,2013-09-06 23:03:00,
2013-09-06 19:04:00,74.9,30.6,30.07,South,178,3.2,4.9,20,0.00,,,0.00,95.30,VWS V14.01,2013-09-06 23:04:00,
2013-09-06 19:05:00,74.9,30.2,30.08,South,184,2.5,4.9,19,0.00,,,0.00,120.51,VWS V14.01,2013-09-06 23:05:00,
2013-09-06 19:06:00,74.6,30.1,30.08,South,188,3.5,4.9,19,0.00,,,0.00,125.09,VWS V14.01,2013-09-06 23:06:00,
2013-09-06 19:08:00,74.6,30.4,30.07,SSW,192,3.7,4.9,20,0.00,,,0.00,115.20,VWS V14.01,2013-09-06 23:08:00,
2013-09-06 19:09:00,74.7,31.0,30.07,South,175,2.5,4.9,20,0.00,,,0.00,115.02,VWS V14.01,2013-09-06 23:09:00,
2013-09-06 19:10:00,74.6,31.9,30.07,South,186,2.5,4.9,21,0.00,,,0.00,114.84,VWS V14.01,2013-09-06 23:10:00,
2013-09-06 19:11:00,74.6,31.3,30.07,South,169,3.0,4.9,20,0.00,,,0.00,114.59,VWS V14.01,2013-09-06 23:11:00,
2013-09-06 19:12:00,74.7,31.4,30.08,South,181,2.8,4.9,20,0.00,,,0.00,112.33,VWS V14.01,2013-09-06 23:12:00,
2013-09-06 19:14:00,74.8,30.6,30.08,SSE,159,5.2,5.2,20,0.00,,,0.00,100.24,VWS V14.01,2013-09-06 23:14:00,
2013-09-06 19:15:00,74.6,30.6,30.08,South,177,4.9,5.2,20,0.00,,,0.00,97.74,VWS V14.01,2013-09-06 23:15:00,
2013-09-06 19:16:00,74.9,31.8,30.07,South,175,2.0,5.2,21,0.00,,,0.00,95.06,VWS V14.01,2013-09-06 23:16:00,
2013-09-06 19:17:00,74.3,30.9,30.08,SSW,204,3.2,5.2,20,0.00,,,0.00,94.08,VWS V14.01,2013-09-06 23:17:00,
2013-09-06 19:19:00,74.1,31.1,30.10,South,181,4.2,5.2,20,0.00,,,0.00,92.12,VWS V14.01,2013-09-06 23:19:00,
2013-09-06 19:20:00,74.5,31.7,30.08,South,181,3.9,5.2,21,0.00,,,0.00,83.21,VWS V14.01,2013-09-06 23:20:00,
2013-09-06 19:21:00,74.6,31.2,30.07,South,183,3.4,5.2,20,0.00,,,0.00,86.26,VWS V14.01,2013-09-06 23:21:00,
2013-09-06 19:22:00,74.9,32.6,30.07,SSE,155,1.8,5.2,21,0.00,,,0.00,83.82,VWS V14.01,2013-09-06 23:22:00,
2013-09-06 19:24:00,74.9,32.7,30.09,South,185,2.7,5.2,21,0.00,,,0.00,78.21,VWS V14.01,2013-09-06 23:24:00,
2013-09-06 19:26:00,74.9,33.0,30.08,South,187,2.8,5.2,21,0.00,,,0.00,75.52,VWS V14.01,2013-09-06 23:26:00,
2013-09-06 19:27:00,74.9,33.5,30.08,South,175,2.5,5.2,22,0.00,,,0.00,73.08,VWS V14.01,2013-09-06 23:27:00,
2013-09-06 19:29:00,74.0,32.9,30.08,South,184,3.4,5.2,22,0.00,,,0.00,64.53,VWS V14.01,2013-09-06 23:29:00,
2013-09-06 19:30:00,74.0,33.4,30.07,South,175,3.0,5.2,23,0.00,,,0.00,56.90,VWS V14.01,2013-09-06 23:30:00,
2013-09-06 19:31:00,73.4,34.0,30.08,SSW,196,0.0,5.2,24,0.00,,,0.00,54.15,VWS V14.01,2013-09-06 23:31:00,
2013-09-06 19:32:00,73.5,33.0,30.08,South,181,2.8,5.2,23,0.00,,,0.00,53.54,VWS V14.01,2013-09-06 23:32:00,
2013-09-06 19:33:00,74.5,34.5,30.08,South,183,0.0,5.2,23,0.00,,,0.00,55.98,VWS V14.01,2013-09-06 23:33:00,
2013-09-06 19:35:00,74.0,33.8,30.08,South,177,1.3,5.2,23,0.00,,,0.00,53.79,VWS V14.01,2013-09-06 23:35:00,
2013-09-06 19:36:00,73.7,31.6,30.07,South,174,0.0,5.2,21,0.00,,,0.00,49.76,VWS V14.01,2013-09-06 23:36:00,
2013-09-06 19:37:00,73.5,33.8,30.09,SSE,168,1.1,5.2,23,0.00,,,0.00,46.21,VWS V14.01,2013-09-06 23:37:00,
2013-09-06 19:38:00,72.9,31.5,30.08,SSE,168,1.3,5.2,22,0.00,,,0.00,44.38,VWS V14.01,2013-09-06 23:38:00,
2013-09-06 19:41:00,72.6,33.4,30.08,South,170,2.7,5.2,24,0.00,,,0.00,39.19,VWS V14.01,2013-09-06 23:41:00,
2013-09-06 19:42:00,72.6,33.4,30.08,South,170,2.7,5.2,24,0.00,,,0.00,39.19,VWS V14.01,2013-09-06 23:42:00,
2013-09-06 19:43:00,72.1,33.2,30.08,South,169,2.0,5.2,24,0.00,,,0.00,29.73,VWS V14.01,2013-09-06 23:43:00,
2013-09-06 19:44:00,71.7,31.0,30.07,South,169,2.2,5.2,22,0.00,,,0.00,21.79,VWS V14.01,2013-09-06 23:44:00,
2013-09-06 19:47:00,71.5,33.8,30.08,SSE,168,2.5,5.2,25,0.00,,,0.00,23.75,VWS V14.01,2013-09-06 23:47:00,
2013-09-06 19:48:00,71.6,33.8,30.08,SSE,168,2.8,5.2,25,0.00,,,0.00,24.24,VWS V14.01,2013-09-06 23:48:00,
2013-09-06 19:49:00,71.6,33.9,30.08,South,169,3.0,5.2,25,0.00,,,0.00,15.69,VWS V14.01,2013-09-06 23:49:00,
2013-09-06 19:50:00,71.2,33.7,30.08,South,169,2.8,5.2,25,0.00,,,0.00,21.79,VWS V14.01,2013-09-06 23:50:00,
2013-09-06 19:52:00,70.5,33.9,30.08,South,169,2.2,5.2,26,0.00,,,0.00,17.40,VWS V14.01,2013-09-06 23:52:00,
2013-09-06 19:53:00,70.1,34.4,30.07,South,169,1.8,5.2,27,0.00,,,0.00,14.47,VWS V14.01,2013-09-06 23:53:00,
2013-09-06 19:54:00,70.1,34.4,30.07,South,169,1.8,5.2,27,0.00,,,0.00,14.47,VWS V14.01,2013-09-06 23:54:00,
2013-09-06 19:55:00,69.8,34.4,30.08,South,169,1.1,5.2,27,0.00,,,0.00,10.56,VWS V14.01,2013-09-06 23:55:00,
2013-09-06 19:58:00,70.5,34.5,30.08,South,169,0.0,5.2,27,0.00,,,0.00,7.14,VWS V14.01,2013-09-06 23:58:00,
2013-09-06 19:59:00,70.4,34.5,30.07,South,169,0.0,5.2,27,0.00,,,0.00,0.85,VWS V14.01,2013-09-06 23:59:00,
2013-09-06 20:00:00,70.3,34.3,30.08,South,169,0.0,5.2,26,0.00,,,0.00,4.40,VWS V14.01,2013-09-07 00:00:00,
2013-09-06 20:01:00,70.2,34.4,30.08,South,169,0.0,0.0,27,0.00,,,0.00,5.31,VWS V14.01,2013-09-07 00:01:00,
2013-09-06 20:04:00,69.3,34.4,30.07,SSE,163,0.0,0.0,28,0.00,,,0.00,4.46,VWS V14.01,2013-09-07 00:04:00,
2013-09-06 20:05:00,69.9,34.9,30.08,SSE,163,0.0,0.0,28,0.00,,,0.00,3.97,VWS V14.01,2013-09-07 00:05:00,
2013-09-06 20:07:00,70.2,34.9,30.08,SSE,163,2.0,2.0,27,0.00,,,0.00,4.46,VWS V14.01,2013-09-07 00:07:00,
2013-09-06 20:08:00,69.8,34.7,30.08,SSE,163,0.0,2.0,27,0.00,,,0.00,4.21,VWS V14.01,2013-09-07 00:08:00,
2013-09-06 20:09:00,69.9,34.7,30.08,SSE,163,0.0,2.0,27,0.00,,,0.00,3.91,VWS V14.01,2013-09-07 00:09:00,
2013-09-06 20:10:00,69.7,34.5,30.08,SSE,163,0.0,2.0,27,0.00,,,0.00,3.17,VWS V14.01,2013-09-07 00:10:00,
2013-09-06 20:14:00,68.5,35.3,30.08,SSE,163,0.0,2.0,29,0.00,,,0.00,2.26,VWS V14.01,2013-09-07 00:14:00,
2013-09-06 20:15:00,67.7,35.4,30.08,SSE,163,0.0,2.0,30,0.00,,,0.00,1.77,VWS V14.01,2013-09-07 00:15:00,
2013-09-06 20:16:00,67.4,35.4,30.07,SSE,163,0.0,2.0,31,0.00,,,0.00,0.49,VWS V14.01,2013-09-07 00:16:00,
2013-09-06 20:18:00,67.2,36.8,30.08,SSE,163,0.0,2.0,33,0.00,,,0.00,0.00,VWS V14.01,2013-09-07 00:18:00,
2013-09-06 20:20:00,68.1,37.6,30.08,SSE,163,0.0,2.0,33,0.00,,,0.00,0.43,VWS V14.01,2013-09-07 00:20:00,
2013-09-06 20:21:00,67.9,37.5,30.08,SSE,163,0.0,2.0,33,0.00,,,0.00,0.43,VWS V14.01,2013-09-07 00:21:00,
2013-09-06 20:24:00,67.9,37.6,30.08,SSE,163,0.0,2.0,33,0.00,,,0.00,0.43,VWS V14.01,2013-09-07 00:24:00,
2013-09-06 20:25:00,66.6,36.8,30.08,SSE,163,0.0,2.0,33,0.00,,,0.00,0.43,VWS V14.01,2013-09-07 00:25:00,
2013-09-06 20:26:00,67.3,37.3,30.08,SSE,163,0.0,2.0,33,0.00,,,0.00,0.00,VWS V14.01,2013-09-07 00:26:00,
2013-09-06 20:28:00,67.1,37.8,30.08,SSE,163,0.0,2.0,34,0.00,,,0.00,0.00,VWS V14.01,2013-09-07 00:28:00,
2013-09-06 20:30:00,67.1,38.1,30.08,SSE,163,0.0,2.0,34,0.00,,,0.00,0.00,VWS V14.01,2013-09-07 00:30:00,
2013-09-06 20:33:00,67.2,38.2,30.08,SSE,163,0.0,2.0,34,0.00,,,0.00,0.00,VWS V14.01,2013-09-07 00:33:00,
2013-09-06 20:34:00,66.8,38.0,30.08,SSE,163,0.0,2.0,35,0.00,,,0.00,0.00,VWS V14.01,2013-09-07 00:34:00,
2013-09-06 20:35:00,64.5,37.0,30.08,SSE,163,0.0,2.0,36,0.00,,,0.00,0.73,VWS V14.01,2013-09-07 00:35:00,
2013-09-06 20:36:00,63.5,37.1,30.08,SSE,163,0.0,2.0,37,0.00,,,0.00,0.00,VWS V14.01,2013-09-07 00:36:00,
2013-09-06 20:37:00,64.4,38.6,30.08,SSE,163,0.0,2.0,39,0.00,,,0.00,0.12,VWS V14.01,2013-09-07 00:37:00,
2013-09-06 20:38:00,65.7,39.6,30.08,SE,135,0.0,2.0,38,0.00,,,0.00,0.00,VWS V14.01,2013-09-07 00:38:00,
2013-09-06 20:39:00,66.3,39.6,30.08,ESE,119,0.0,2.0,38,0.00,,,0.00,0.12,VWS V14.01,2013-09-07 00:39:00,
2013-09-06 20:40:00,65.4,39.0,30.08,ESE,119,0.0,2.0,38,0.00,,,0.00,0.00,VWS V14.01,2013-09-07 00:40:00,
2013-09-06 20:42:00,64.5,37.8,30.08,ESE,119,0.0,2.0,37,0.00,,,0.00,0.00,VWS V14.01,2013-09-07 00:42:00,
2013-09-06 20:43:00,64.4,38.3,30.08,ESE,119,0.0,2.0,38,0.00,,,0.00,0.00,VWS V14.01,2013-09-07 00:43:00,
2013-09-06 20:45:00,63.8,38.7,30.09,ESE,119,0.0,2.0,40,0.00,,,0.00,0.00,VWS V14.01,2013-09-07 00:45:00,
2013-09-06 20:46:00,63.0,38.4,30.08,ESE,119,0.0,2.0,40,0.00,,,0.00,0.00,VWS V14.01,2013-09-07 00:46:00,
2013-09-06 20:47:00,62.1,37.8,30.08,ESE,119,0.0,2.0,40,0.00,,,0.00,0.00,VWS V14.01,2013-09-07 00:47:00,
2013-09-06 20:49:00,62.2,38.5,30.07,ESE,119,0.0,2.0,41,0.00,,,0.00,0.12,VWS V14.01,2013-09-07 00:49:00,
2013-09-06 20:50:00,61.7,38.5,30.07,ESE,119,0.0,2.0,42,0.00,,,0.00,0.43,VWS V14.01,2013-09-07 00:50:00,
2013-09-06 20:51:00,61.7,38.5,30.07,ESE,119,0.0,2.0,42,0.00,,,0.00,0.43,VWS V14.01,2013-09-07 00:51:00,
2013-09-06 20:54:00,63.0,40.6,30.10,ESE,119,0.0,2.0,44,0.00,,,0.00,0.00,VWS V14.01,2013-09-07 00:54:00,
2013-09-06 20:56:00,64.0,40.5,30.08,ESE,119,0.0,2.0,42,0.00,,,0.00,0.00,VWS V14.01,2013-09-07 00:56:00,
2013-09-06 20:57:00,64.3,40.6,30.07,ESE,119,0.0,2.0,42,0.00,,,0.00,0.00,VWS V14.01,2013-09-07 00:57:00,
2013-09-06 20:58:00,64.3,40.4,30.07,ESE,119,0.0,2.0,41,0.00,,,0.00,0.00,VWS V14.01,2013-09-07 00:58:00,
2013-09-06 21:00:00,63.7,39.7,30.07,ESE,119,0.0,2.0,41,0.00,,,0.00,0.00,VWS V14.01,2013-09-07 01:00:00,
2013-09-06 21:01:00,62.6,38.8,30.07,ESE,119,0.0,2.0,41,0.00,,,0.00,0.00,VWS V14.01,2013-09-07 01:01:00,
2013-09-06 21:02:00,62.3,39.0,30.08,ESE,119,0.0,0.0,42,0.00,,,0.00,0.00,VWS V14.01,2013-09-07 01:02:00,
2013-09-06 21:04:00,63.3,39.4,30.08,ESE,119,0.0,0.0,41,0.00,,,0.00,0.00,VWS V14.01,2013-09-07 01:04:00,
2013-09-06 21:05:00,63.4,40.5,30.09,ESE,119,0.0,0.0,43,0.00,,,0.00,0.00,VWS V14.01,2013-09-07 01:05:00,
2013-09-06 21:06:00,63.1,40.4,30.09,ESE,119,0.0,0.0,43,0.00,,,0.00,0.00,VWS V14.01,2013-09-07 01:06:00,
2013-09-06 21:10:00,63.2,40.7,30.08,ESE,119,0.0,0.0,43,0.00,,,0.00,0.73,VWS V14.01,2013-09-07 01:10:00,
2013-09-06 21:11:00,63.4,41.9,30.09,ESE,119,0.0,0.0,45,0.00,,,0.00,0.00,VWS V14.01,2013-09-07 01:11:00,
2013-09-06 21:12:00,63.3,41.8,30.08,ESE,119,0.0,0.0,45,0.00,,,0.00,0.00,VWS V14.01,2013-09-07 01:12:00,
2013-09-06 21:13:00,63.1,42.2,30.08,ESE,119,0.0,0.0,46,0.00,,,0.00,0.00,VWS V14.01,2013-09-07 01:13:00,
2013-09-06 21:15:00,62.3,42.2,30.08,ESE,119,0.0,0.0,48,0.00,,,0.00,0.00,VWS V14.01,2013-09-07 01:15:00,
2013-09-06 21:16:00,62.2,42.9,30.08,ESE,119,0.0,0.0,49,0.00,,,0.00,0.00,VWS V14.01,2013-09-07 01:16:00,
2013-09-06 21:17:00,62.5,42.7,30.08,ESE,119,0.0,0.0,48,0.00,,,0.00,0.00,VWS V14.01,2013-09-07 01:17:00,
2013-09-06 21:18:00,61.7,42.7,30.08,ESE,119,0.0,0.0,50,0.00,,,0.00,0.00,VWS V14.01,2013-09-07 01:18:00,
2013-09-06 21:19:00,61.3,42.9,30.07,ESE,119,0.0,0.0,51,0.00,,,0.00,0.00,VWS V14.01,2013-09-07 01:19:00,
2013-09-06 21:21:00,62.1,43.4,30.08,ESE,119,0.0,0.0,50,0.00,,,0.00,0.00,VWS V14.01,2013-09-07 01:21:00,
2013-09-06 21:22:00,62.3,43.9,30.09,ESE,119,0.0,0.0,51,0.00,,,0.00,0.00,VWS V14.01,2013-09-07 01:22:00,
2013-09-06 21:23:00,61.8,43.5,30.09,ESE,119,0.0,0.0,51,0.00,,,0.00,0.43,VWS V14.01,2013-09-07 01:23:00,
2013-09-06 21:24:00,63.0,44.0,30.11,ESE,119,0.0,0.0,50,0.00,,,0.00,0.00,VWS V14.01,2013-09-07 01:24:00,
2013-09-06 21:25:00,60.8,42.6,30.09,ESE,119,0.0,0.0,51,0.00,,,0.00,0.00,VWS V14.01,2013-09-07 01:25:00,
2013-09-06 21:27:00,60.2,42.8,30.12,ESE,119,0.0,0.0,53,0.00,,,0.00,0.00,VWS V14.01,2013-09-07 01:27:00,
2013-09-06 21:29:00,62.0,44.5,30.08,ESE,119,0.0,0.0,53,0.00,,,0.00,0.00,VWS V14.01,2013-09-07 01:29:00,
2013-09-06 21:30:00,60.8,43.5,30.08,ESE,119,0.0,0.0,53,0.00,,,0.00,0.00,VWS V14.01,2013-09-07 01:30:00,
2013-09-06 21:33:00,63.6,44.9,30.08,ESE,119,0.0,0.0,50,0.00,,,0.00,0.00,VWS V14.01,2013-09-07 01:33:00,
2013-09-06 21:35:00,64.0,44.4,30.09,ESE,119,0.0,0.0,49,0.00,,,0.00,0.00,VWS V14.01,2013-09-07 01:35:00,
2013-09-06 21:36:00,63.4,43.5,30.08,ESE,119,0.0,0.0,48,0.00,,,0.00,0.00,VWS V14.01,2013-09-07 01:36:00,
2013-09-06 21:39:00,61.0,43.3,30.09,ESE,119,0.0,0.0,52,0.00,,,0.00,0.00,VWS V14.01,2013-09-07 01:39:00,
2013-09-06 21:40:00,63.5,44.6,30.08,ESE,119,0.0,0.0,50,0.00,,,0.00,0.00,VWS V14.01,2013-09-07 01:40:00,
2013-09-06 21:41:00,62.4,42.3,30.09,ENE,76,3.0,3.0,48,0.00,,,0.00,0.00,VWS V14.01,2013-09-07 01:41:00,
2013-09-06 21:44:00,62.6,44.0,30.08,East,84,2.3,2.7,50,0.00,,,0.00,0.43,VWS V14.01,2013-09-07 01:44:00,
2013-09-06 21:46:00,62.3,42.9,30.08,East,84,0.0,0.0,49,0.00,,,0.00,0.73,VWS V14.01,2013-09-07 01:46:00,
2013-09-06 21:48:00,63.0,43.4,30.08,East,84,0.0,0.0,49,0.00,,,0.00,0.00,VWS V14.01,2013-09-07 01:48:00,
2013-09-06 21:49:00,62.4,42.8,30.08,East,84,0.0,0.0,49,0.00,,,0.00,0.12,VWS V14.01,2013-09-07 01:49:00,
2013-09-06 21:51:00,60.8,42.0,30.09,East,84,0.0,0.0,50,0.00,,,0.00,0.00,VWS V14.01,2013-09-07 01:51:00,
2013-09-06 21:52:00,59.9,41.4,30.09,East,84,0.0,0.0,50,0.00,,,0.00,0.00,VWS V14.01,2013-09-07 01:52:00,
2013-09-06 21:55:00,59.2,43.6,30.08,East,84,0.0,0.0,56,0.00,,,0.00,0.00,VWS V14.01,2013-09-07 01:55:00,
2013-09-06 21:56:00,59.0,45.6,30.08,East,84,0.0,0.0,61,0.00,,,0.00,0.43,VWS V14.01,2013-09-07 01:56:00,
2013-09-06 21:57:00,58.8,45.9,30.08,East,84,0.0,0.0,62,0.00,,,0.00,0.12,VWS V14.01,2013-09-07 01:57:00,
2013-09-06 21:58:00,58.4,45.5,30.08,East,84,0.0,0.0,62,0.00,,,0.00,0.00,VWS V14.01,2013-09-07 01:58:00,
2013-09-06 22:01:00,59.3,46.6,30.08,East,84,0.0,0.0,63,0.00,,,0.00,0.00,VWS V14.01,2013-09-07 02:01:00,
2013-09-06 22:03:00,60.0,44.5,30.08,East,84,0.0,0.0,56,0.00,,,0.00,0.00,VWS V14.01,2013-09-07 02:03:00,
2013-09-06 22:04:00,61.5,47.0,30.08,East,84,0.0,0.0,59,0.00,,,0.00,0.00,VWS V14.01,2013-09-07 02:04:00,
2013-09-06 22:05:00,61.9,45.9,30.08,East,84,0.0,0.0,56,0.00,,,0.00,0.00,VWS V14.01,2013-09-07 02:05:00,
2013-09-06 22:06:00,58.1,43.1,30.09,East,84,0.0,0.0,57,0.00,,,0.00,0.00,VWS V14.01,2013-09-07 02:06:00,
2013-09-06 22:07:00,57.9,44.1,30.09,East,84,0.0,0.0,60,0.00,,,0.00,0.12,VWS V14.01,2013-09-07 02:07:00,
2013-09-06 22:08:00,57.6,44.0,30.08,East,84,0.0,0.0,60,0.00,,,0.00,0.00,VWS V14.01,2013-09-07 02:08:00,
2013-09-06 22:11:00,58.3,46.4,30.08,East,84,0.0,0.0,64,0.00,,,0.00,0.43,VWS V14.01,2013-09-07 02:11:00,
2013-09-06 22:12:00,58.4,46.9,30.07,East,84,0.0,0.0,65,0.00,,,0.00,0.00,VWS V14.01,2013-09-07 02:12:00,
2013-09-06 22:13:00,57.4,45.9,30.06,East,84,0.0,0.0,65,0.00,,,0.00,0.00,VWS V14.01,2013-09-07 02:13:00,
2013-09-06 22:14:00,57.4,46.0,30.07,East,84,0.0,0.0,66,0.00,,,0.00,0.00,VWS V14.01,2013-09-07 02:14:00,
2013-09-06 22:17:00,58.4,48.3,30.08,East,84,0.0,0.0,69,0.00,,,0.00,0.00,VWS V14.01,2013-09-07 02:17:00,
2013-09-06 22:19:00,58.5,49.0,30.08,East,84,0.0,0.0,71,0.00,,,0.00,0.43,VWS V14.01,2013-09-07 02:19:00,
2013-09-06 22:20:00,58.6,49.0,30.08,East,84,0.0,0.0,70,0.00,,,0.00,0.00,VWS V14.01,2013-09-07 02:20:00,
2013-09-06 22:21:00,58.6,48.3,30.08,East,84,0.0,0.0,69,0.00,,,0.00,0.43,VWS V14.01,2013-09-07 02:21:00,
2013-09-06 22:22:00,57.9,47.7,30.08,East,84,0.0,0.0,69,0.00,,,0.00,0.43,VWS V14.01,2013-09-07 02:22:00,
2013-09-06 22:23:00,56.8,46.2,30.09,East,84,0.0,0.0,67,0.00,,,0.00,0.00,VWS V14.01,2013-09-07 02:23:00,
2013-09-06 22:25:00,56.0,45.6,30.12,East,84,0.0,0.0,68,0.00,,,0.00,0.00,VWS V14.01,2013-09-07 02:25:00,
2013-09-06 22:26:00,55.9,45.8,30.09,East,84,0.0,0.0,69,0.00,,,0.00,0.12,VWS V14.01,2013-09-07 02:26:00,
2013-09-06 22:28:00,56.1,46.7,30.09,East,84,0.0,0.0,71,0.00,,,0.00,0.00,VWS V14.01,2013-09-07 02:28:00,
2013-09-06 22:30:00,56.6,47.7,30.08,East,84,0.0,0.0,72,0.00,,,0.00,0.00,VWS V14.01,2013-09-07 02:30:00,
2013-09-06 22:31:00,56.3,47.5,30.09,East,84,0.0,0.0,72,0.00,,,0.00,0.00,VWS V14.01,2013-09-07 02:31:00,
2013-09-06 22:32:00,56.3,47.5,30.09,East,84,0.0,0.0,72,0.00,,,0.00,0.00,VWS V14.01,2013-09-07 02:32:00,
2013-09-06 22:33:00,56.8,48.2,30.09,East,84,0.0,0.0,73,0.00,,,0.00,0.00,VWS V14.01,2013-09-07 02:33:00,
2013-09-06 22:34:00,56.2,47.6,30.09,East,84,0.0,0.0,73,0.00,,,0.00,0.00,VWS V14.01,2013-09-07 02:34:00,
2013-09-06 22:35:00,56.8,48.5,30.09,East,84,0.0,0.0,74,0.00,,,0.00,0.00,VWS V14.01,2013-09-07 02:35:00,
2013-09-06 22:37:00,57.8,49.7,30.09,NE,52,2.0,2.0,74,0.00,,,0.00,0.00,VWS V14.01,2013-09-07 02:37:00,
2013-09-06 22:39:00,58.6,49.1,30.09,NE,52,2.8,2.8,71,0.00,,,0.00,0.00,VWS V14.01,2013-09-07 02:39:00,
2013-09-06 22:40:00,59.8,48.4,30.09,NE,48,2.7,3.0,66,0.00,,,0.00,0.00,VWS V14.01,2013-09-07 02:40:00,
2013-09-06 22:42:00,59.9,46.5,30.08,NE,48,0.0,1.3,61,0.00,,,0.00,0.00,VWS V14.01,2013-09-07 02:42:00,
2013-09-06 22:44:00,58.6,45.7,30.09,NE,48,0.0,0.0,62,0.00,,,0.00,0.43,VWS V14.01,2013-09-07 02:44:00,
2013-09-06 22:46:00,56.7,44.4,30.08,NE,48,0.0,0.0,63,0.00,,,0.00,0.00,VWS V14.01,2013-09-07 02:46:00,
2013-09-06 22:48:00,55.9,45.2,30.08,NE,48,0.0,0.0,67,0.00,,,0.00,0.00,VWS V14.01,2013-09-07 02:48:00,
2013-09-06 22:49:00,55.9,45.2,30.08,NE,48,0.0,0.0,67,0.00,,,0.00,0.00,VWS V14.01,2013-09-07 02:49:00,
2013-09-06 22:50:00,56.1,46.4,30.07,NE,48,0.0,0.0,70,0.00,,,0.00,0.00,VWS V14.01,2013-09-07 02:50:00,
2013-09-06 22:51:00,55.9,46.5,30.08,NE,48,0.0,0.0,71,0.00,,,0.00,0.00,VWS V14.01,2013-09-07 02:51:00,
2013-09-06 22:54:00,55.3,46.3,30.09,NE,48,0.0,0.0,72,0.00,,,0.00,0.00,VWS V14.01,2013-09-07 02:54:00,
2013-09-06 22:55:00,55.1,46.2,30.09,NE,48,0.0,0.0,72,0.00,,,0.00,0.00,VWS V14.01,2013-09-07 02:55:00,
2013-09-06 22:56:00,54.9,46.2,30.08,NE,48,0.0,0.0,72,0.00,,,0.00,0.00,VWS V14.01,2013-09-07 02:56:00,
2013-09-06 22:57:00,54.9,46.2,30.08,NE,48,0.0,0.0,72,0.00,,,0.00,0.00,VWS V14.01,2013-09-07 02:57:00,
2013-09-06 22:58:00,54.7,46.5,30.08,NE,48,0.0,0.0,74,0.00,,,0.00,0.00,VWS V14.01,2013-09-07 02:58:00,
2013-09-06 23:00:00,55.8,48.2,30.07,NE,48,0.0,0.0,76,0.00,,,0.00,0.00,VWS V14.01,2013-09-07 03:00:00,
2013-09-06 23:01:00,55.3,47.8,30.07,NE,48,0.0,0.0,76,0.00,,,0.00,0.00,VWS V14.01,2013-09-07 03:01:00,
2013-09-06 23:03:00,55.4,48.1,30.07,NE,48,0.0,0.0,76,0.00,,,0.00,0.43,VWS V14.01,2013-09-07 03:03:00,
2013-09-06 23:05:00,55.9,48.8,30.07,NE,48,0.0,0.0,77,0.00,,,0.00,0.00,VWS V14.01,2013-09-07 03:05:00,
2013-09-06 23:06:00,56.0,48.6,30.07,NE,48,0.0,0.0,76,0.00,,,0.00,0.00,VWS V14.01,2013-09-07 03:06:00,
2013-09-06 23:09:00,55.2,47.5,30.08,NE,48,0.0,0.0,75,0.00,,,0.00,0.00,VWS V14.01,2013-09-07 03:09:00,
2013-09-06 23:11:00,55.9,48.7,30.09,NE,48,0.0,0.0,77,0.00,,,0.00,0.00,VWS V14.01,2013-09-07 03:11:00,
2013-09-06 23:12:00,55.2,47.1,30.08,NE,48,0.0,0.0,74,0.00,,,0.00,0.00,VWS V14.01,2013-09-07 03:12:00,
2013-09-06 23:14:00,55.1,48.1,30.08,NE,48,0.0,0.0,77,0.00,,,0.00,0.43,VWS V14.01,2013-09-07 03:14:00,
2013-09-06 23:15:00,54.9,48.0,30.08,NE,48,0.0,0.0,77,0.00,,,0.00,0.00,VWS V14.01,2013-09-07 03:15:00,
2013-09-06 23:16:00,55.3,48.7,30.08,NE,48,0.0,0.0,78,0.00,,,0.00,0.00,VWS V14.01,2013-09-07 03:16:00,
2013-09-06 23:18:00,56.0,49.7,30.07,NE,48,0.0,0.0,79,0.00,,,0.00,0.73,VWS V14.01,2013-09-07 03:18:00,
2013-09-06 23:20:00,56.2,50.0,30.07,NE,48,0.0,0.0,79,0.00,,,0.00,0.00,VWS V14.01,2013-09-07 03:20:00,
2013-09-06 23:24:00,57.0,50.8,30.08,NE,48,0.0,0.0,80,0.00,,,0.00,0.00,VWS V14.01,2013-09-07 03:24:00,
2013-09-06 23:25:00,56.9,50.6,30.08,NE,48,0.0,0.0,79,0.00,,,0.00,0.00,VWS V14.01,2013-09-07 03:25:00,
2013-09-06 23:26:00,56.6,50.2,30.09,NE,48,0.0,0.0,79,0.00,,,0.00,0.00,VWS V14.01,2013-09-07 03:26:00,
2013-09-06 23:27:00,56.0,49.2,30.08,NE,48,0.0,0.0,78,0.00,,,0.00,0.00,VWS V14.01,2013-09-07 03:27:00,
2013-09-06 23:30:00,55.7,49.2,30.07,NE,48,0.0,0.0,79,0.00,,,0.00,0.00,VWS V14.01,2013-09-07 03:30:00,
2013-09-06 23:31:00,55.7,49.2,30.07,NE,48,0.0,0.0,79,0.00,,,0.00,0.00,VWS V14.01,2013-09-07 03:31:00,
2013-09-06 23:32:00,56.4,50.0,30.07,NE,48,0.0,0.0,79,0.00,,,0.00,0.00,VWS V14.01,2013-09-07 03:32:00,
2013-09-06 23:33:00,55.4,48.4,30.08,NE,48,0.0,0.0,77,0.00,,,0.00,0.00,VWS V14.01,2013-09-07 03:33:00,
2013-09-06 23:34:00,55.4,48.4,30.08,NE,48,0.0,0.0,77,0.00,,,0.00,0.00,VWS V14.01,2013-09-07 03:34:00,
2013-09-06 23:35:00,56.7,50.2,30.07,NE,48,0.0,0.0,79,0.00,,,0.00,0.00,VWS V14.01,2013-09-07 03:35:00,
2013-09-06 23:36:00,57.5,51.1,30.07,NE,48,0.0,0.0,79,0.00,,,0.00,0.00,VWS V14.01,2013-09-07 03:36:00,
2013-09-06 23:37:00,58.7,51.3,30.08,NE,48,0.0,0.0,77,0.00,,,0.00,0.43,VWS V14.01,2013-09-07 03:37:00,
2013-09-06 23:38:00,58.3,49.8,30.07,NE,48,0.0,0.0,74,0.00,,,0.00,0.00,VWS V14.01,2013-09-07 03:38:00,
2013-09-06 23:40:00,58.5,49.5,30.08,NE,48,0.0,0.0,72,0.00,,,0.00,0.00,VWS V14.01,2013-09-07 03:40:00,
2013-09-06 23:41:00,57.3,48.4,30.07,NE,48,0.0,0.0,72,0.00,,,0.00,0.00,VWS V14.01,2013-09-07 03:41:00,
2013-09-06 23:42:00,57.0,48.3,30.07,NE,48,0.0,0.0,73,0.00,,,0.00,0.00,VWS V14.01,2013-09-07 03:42:00,
2013-09-06 23:43:00,57.0,48.3,30.07,NE,48,0.0,0.0,73,0.00,,,0.00,0.00,VWS V14.01,2013-09-07 03:43:00,
2013-09-06 23:45:00,55.9,48.8,30.07,NE,48,0.0,0.0,77,0.00,,,0.00,0.43,VWS V14.01,2013-09-07 03:45:00,
2013-09-06 23:46:00,56.0,49.0,30.07,NE,48,0.0,0.0,77,0.00,,,0.00,0.12,VWS V14.01,2013-09-07 03:46:00,
2013-09-06 23:48:00,55.2,49.0,30.07,North,4,0.0,0.0,80,0.00,,,0.00,0.00,VWS V14.01,2013-09-07 03:48:00,
2013-09-06 23:49:00,55.3,49.0,30.07,North,4,0.0,0.0,79,0.00,,,0.00,0.00,VWS V14.01,2013-09-07 03:49:00,
2013-09-06 23:50:00,55.7,49.7,30.08,North,4,0.0,0.0,80,0.00,,,0.00,0.12,VWS V14.01,2013-09-07 03:50:00,
2013-09-06 23:51:00,55.7,49.3,30.07,North,4,0.0,0.0,79,0.00,,,0.00,0.00,VWS V14.01,2013-09-07 03:51:00,
2013-09-06 23:53:00,54.7,47.7,30.06,North,4,0.0,0.0,77,0.00,,,0.00,0.43,VWS V14.01,2013-09-07 03:53:00,
2013-09-06 23:55:00,54.0,46.9,30.07,North,4,0.0,0.0,77,0.00,,,0.00,0.00,VWS V14.01,2013-09-07 03:55:00,
2013-09-06 23:56:00,53.9,46.7,30.07,North,4,0.0,0.0,77,0.00,,,0.00,0.12,VWS V14.01,2013-09-07 03:56:00,
2013-09-06 23:58:00,53.9,47.7,30.05,North,4,0.0,0.0,79,0.00,,,0.00,0.00,VWS V14.01,2013-09-07 03:58:00,
2013-09-06 23:59:00,53.9,47.7,30.05,North,4,0.0,0.0,79,0.00,,,0.00,0.00,VWS V14.01,2013-09-07 03:59:00,